Observation data for Clyde on 03/05/2021      Previous  Date  Next       Current Mesonet Observations  Soil Data  Daily Summary Page  Observations in Plain Language
KCL2 050600Z 26010KT 17/09 A2991 RMK A01 T01660089  RH  060%=      5-min Rain = 0
KCL2 050601Z 25009KT 17/09 A2991 RMK A01 T01650089  RH  061%=      5-min Rain = 0
KCL2 050602Z 24008KT 17/09 A2991 RMK A01 T01660089  RH  060%=      5-min Rain = 0
KCL2 050603Z 24009KT 17/09 A2991 RMK A01 T01670089  RH  060%=      5-min Rain = 0
KCL2 050604Z 24009KT 17/09 A2991 RMK A01 T01690089  RH  059%=      5-min Rain = 0
KCL2 050605Z 24008KT 17/09 A2991 RMK A01 T01690089  RH  059%=      5-min Rain = 0
KCL2 050606Z 25008KT 17/09 A2991 RMK A01 T01680089  RH  059%=      5-min Rain = 0
KCL2 050607Z 25008KT 17/09 A2991 RMK A01 T01680089  RH  060%=      5-min Rain = 0
KCL2 050608Z 25008KT 17/09 A2991 RMK A01 T01670089  RH  060%=      5-min Rain = 0
KCL2 050609Z 25008KT 17/09 A2991 RMK A01 T01650088  RH  060%=      5-min Rain = 0
KCL2 050610Z 25008KT 17/09 A2991 RMK A01 T01650088  RH  061%=      5-min Rain = 0
KCL2 050611Z 25007KT 16/09 A2991 RMK A01 T01640088  RH  061%=      5-min Rain = 0
KCL2 050612Z 25007KT 16/09 A2991 RMK A01 T01630088  RH  061%=      5-min Rain = 0
KCL2 050613Z 25007KT 16/09 A2991 RMK A01 T01610087  RH  061%=      5-min Rain = 0
KCL2 050614Z 24007KT 16/09 A2991 RMK A01 T01600087  RH  062%=      5-min Rain = 0
KCL2 050615Z 24007KT 16/09 A2991 RMK A01 T01590087  RH  062%=      5-min Rain = 0
KCL2 050616Z 24008KT 16/09 A2991 RMK A01 T01580087  RH  062%=      5-min Rain = 0
KCL2 050617Z 24008KT 16/09 A2991 RMK A01 T01580087  RH  063%=      5-min Rain = 0
KCL2 050618Z 24008KT 16/09 A2991 RMK A01 T01580087  RH  063%=      5-min Rain = 0
KCL2 050619Z 24009KT 16/09 A2991 RMK A01 T01570086  RH  063%=      5-min Rain = 0
KCL2 050620Z 24008KT 16/09 A2991 RMK A01 T01560086  RH  063%=      5-min Rain = 0
KCL2 050621Z 24008KT 16/09 A299 RMK A01 T01560086  RH  063%=      5-min Rain = 0
KCL2 050622Z 24008KT 16/09 A299 RMK A01 T01550085  RH  063%=      5-min Rain = 0
KCL2 050623Z 24008KT 15/09 A299 RMK A01 T01540085  RH  063%=      5-min Rain = 0
KCL2 050624Z 24008KT 15/09 A2991 RMK A01 T01540085  RH  063%=      5-min Rain = 0
KCL2 050625Z 24010KT 15/08 A2991 RMK A01 T01530084  RH  064%=      5-min Rain = 0
KCL2 050626Z 24010KT 15/08 A2991 RMK A01 T01520084  RH  064%=      5-min Rain = 0
KCL2 050627Z 24009KT 15/08 A2991 RMK A01 T01520084  RH  064%=      5-min Rain = 0
KCL2 050628Z 24009KT 15/08 A2991 RMK A01 T01510084  RH  064%=      5-min Rain = 0
KCL2 050629Z 24009KT 15/08 A2991 RMK A01 T01500084  RH  064%=      5-min Rain = 0
KCL2 050630Z 24009KT 15/08 A2991 RMK A01 T01510084  RH  065%=      5-min Rain = 0
KCL2 050631Z 24009KT 15/08 A2991 RMK A01 T01500084  RH  065%=      5-min Rain = 0
KCL2 050632Z 24009KT 15/08 A2991 RMK A01 T01500084  RH  065%=      5-min Rain = 0
KCL2 050633Z 24009KT 15/08 A2991 RMK A01 T01490084  RH  065%=      5-min Rain = 0
KCL2 050634Z 24009KT 15/08 A2991 RMK A01 T01490084  RH  065%=      5-min Rain = 0
KCL2 050635Z 24009KT 15/08 A2991 RMK A01 T01480084  RH  065%=      5-min Rain = 0
KCL2 050636Z 24009KT 15/08 A2991 RMK A01 T01470084  RH  066%=      5-min Rain = 0
KCL2 050637Z 24008KT 15/08 A2991 RMK A01 T01470084  RH  066%=      5-min Rain = 0
KCL2 050638Z 24008KT 15/08 A2991 RMK A01 T01460084  RH  066%=      5-min Rain = 0
KCL2 050639Z 24008KT 15/08 A2991 RMK A01 T01460083  RH  066%=      5-min Rain = 0
KCL2 050640Z 24009KT 15/08 A2991 RMK A01 T01450083  RH  066%=      5-min Rain = 0
KCL2 050641Z 24008KT 14/08 A2991 RMK A01 T01440083  RH  067%=      5-min Rain = 0
KCL2 050642Z 24008KT 14/08 A2991 RMK A01 T01430082  RH  067%=      5-min Rain = 0
KCL2 050643Z 24009KT 14/08 A2991 RMK A01 T01430082  RH  067%=      5-min Rain = 0
KCL2 050644Z 25008KT 14/08 A2991 RMK A01 T01420083  RH  067%=      5-min Rain = 0
KCL2 050645Z 25007KT 14/08 A2991 RMK A01 T01430082  RH  067%=      5-min Rain = 0
KCL2 050646Z 25007KT 14/08 A2991 RMK A01 T01420081  RH  067%=      5-min Rain = 0
KCL2 050647Z 26007KT 14/08 A2991 RMK A01 T01400081  RH  067%=      5-min Rain = 0
KCL2 050648Z 26006KT 14/08 A2991 RMK A01 T01390080  RH  068%=      5-min Rain = 0
KCL2 050649Z 26007KT 14/08 A2991 RMK A01 T01370080  RH  068%=      5-min Rain = 0
KCL2 050650Z 26008KT 14/08 A2991 RMK A01 T01370079  RH  068%=      5-min Rain = 0
KCL2 050651Z 26008KT 14/08 A2991 RMK A01 T01390077  RH  066%=      5-min Rain = 0
KCL2 050652Z 27006KT 14/08 A2991 RMK A01 T01410076  RH  065%=      5-min Rain = 0
KCL2 050653Z 27007KT 14/08 A2991 RMK A01 T01400075  RH  065%=      5-min Rain = 0
KCL2 050654Z 27007KT 14/08 A2991 RMK A01 T01390075  RH  065%=      5-min Rain = 0
KCL2 050655Z 27008KT 14/08 A2991 RMK A01 T01380075  RH  065%=      5-min Rain = 0
KCL2 050656Z 27008KT 14/08 A2991 RMK A01 T01390075  RH  065%=      5-min Rain = 0
KCL2 050657Z 27008KT 14/07 A2991 RMK A01 T01390074  RH  065%=      5-min Rain = 0
KCL2 050658Z 27008KT 14/07 A2991 RMK A01 T01390073  RH  064%=      5-min Rain = 0
KCL2 050659Z 27008KT 14/07 A2991 RMK A01 T01390072  RH  064%=      5-min Rain = 0
KCL2 050700Z 27009KT 14/07 A2991 RMK A01 T01390072  RH  064%=      5-min Rain = 0
KCL2 050701Z 26010KT 14/07 A2991 RMK A01 T01390072  RH  064%=      5-min Rain = 0
KCL2 050702Z 26009KT 14/07 A2991 RMK A01 T01400073  RH  064%=      5-min Rain = 0
KCL2 050703Z 27008KT 14/07 A2991 RMK A01 T01400074  RH  064%=      5-min Rain = 0
KCL2 050704Z 27007KT 14/07 A2991 RMK A01 T01400074  RH  065%=      5-min Rain = 0
KCL2 050705Z 28007KT 14/08 A2991 RMK A01 T01390075  RH  065%=      5-min Rain = 0
KCL2 050706Z 27007KT 14/08 A2991 RMK A01 T01380076  RH  066%=      5-min Rain = 0
KCL2 050707Z 27008KT 14/08 A2991 RMK A01 T01370076  RH  066%=      5-min Rain = 0
KCL2 050708Z 27008KT 14/08 A2991 RMK A01 T01370075  RH  066%=      5-min Rain = 0
KCL2 050709Z 27007KT 14/08 A2991 RMK A01 T01370075  RH  066%=      5-min Rain = 0
KCL2 050710Z 27008KT 14/08 A2991 RMK A01 T01360076  RH  067%=      5-min Rain = 0
KCL2 050711Z 27007KT 14/08 A2991 RMK A01 T01350076  RH  067%=      5-min Rain = 0
KCL2 050712Z 27008KT 13/08 A2991 RMK A01 T01340075  RH  067%=      5-min Rain = 0
KCL2 050713Z 27008KT 13/08 A2991 RMK A01 T01340075  RH  068%=      5-min Rain = 0
KCL2 050714Z 27009KT 13/07 A2991 RMK A01 T01320074  RH  068%=      5-min Rain = 0
KCL2 050715Z 28007KT 13/07 A2991 RMK A01 T01310073  RH  068%=      5-min Rain = 0
KCL2 050716Z 28007KT 13/07 A2991 RMK A01 T01300072  RH  068%=      5-min Rain = 0
KCL2 050717Z 28007KT 13/07 A2991 RMK A01 T01290072  RH  068%=      5-min Rain = 0
KCL2 050718Z 28007KT 13/07 A2991 RMK A01 T01290071  RH  068%=      5-min Rain = 0
KCL2 050719Z 28007KT 13/07 A2991 RMK A01 T01280070  RH  068%=      5-min Rain = 0
KCL2 050720Z 28007KT 13/07 A2991 RMK A01 T01280068  RH  067%=      5-min Rain = 0
KCL2 050721Z 28008KT 13/07 A2991 RMK A01 T01280065  RH  066%=      5-min Rain = 0
KCL2 050722Z 28007KT 13/06 A2991 RMK A01 T01280061  RH  064%=      5-min Rain = 0
KCL2 050723Z 29009KT 13/06 A2991 RMK A01 T01290057  RH  061%=      5-min Rain = 0
KCL2 050724Z 29010KT 13/05 A2991 RMK A01 T01320047  RH  057%=      5-min Rain = 0
KCL2 050725Z 29011KT 14/04 A2991 RMK A01 T01370039  RH  052%=      5-min Rain = 0
KCL2 050726Z 29010KT 14/04 A2991 RMK A01 T01400037  RH  050%=      5-min Rain = 0
KCL2 050727Z 29010KT 14/03 A2991 RMK A01 T01410034  RH  048%=      5-min Rain = 0
KCL2 050728Z 29009KT 14/03 A2991 RMK A01 T01410033  RH  048%=      5-min Rain = 0
KCL2 050729Z 29011KT 14/03 A2991 RMK A01 T01410031  RH  047%=      5-min Rain = 0
KCL2 050730Z 29009KT 14/03 A2991 RMK A01 T01420029  RH  047%=      5-min Rain = 0
KCL2 050731Z 29009KT 14/03 A2991 RMK A01 T01420030  RH  047%=      5-min Rain = 0
KCL2 050732Z 29009KT 14/03 A2991 RMK A01 T01410031  RH  047%=      5-min Rain = 0
KCL2 050733Z 29009KT 14/03 A2991 RMK A01 T01390030  RH  048%=      5-min Rain = 0
KCL2 050734Z 29009KT 14/03 A2991 RMK A01 T01390029  RH  048%=      5-min Rain = 0
KCL2 050735Z 29008KT 14/03 A2991 RMK A01 T01380028  RH  047%=      5-min Rain = 0
KCL2 050736Z 29008KT 14/03 A2991 RMK A01 T01370027  RH  047%=      5-min Rain = 0
KCL2 050737Z 29008KT 14/03 A2991 RMK A01 T01360026  RH  047%=      5-min Rain = 0
KCL2 050738Z 29008KT 14/03 A2991 RMK A01 T01350026  RH  048%=      5-min Rain = 0
KCL2 050739Z 29008KT 13/02 A2991 RMK A01 T01340024  RH  047%=      5-min Rain = 0
KCL2 050740Z 29008KT 13/02 A2991 RMK A01 T01330023  RH  047%=      5-min Rain = 0
KCL2 050741Z 30007KT 13/02 A2991 RMK A01 T01320022  RH  047%=      5-min Rain = 0
KCL2 050742Z 30008KT 13/02 A2991 RMK A01 T01310021  RH  047%=      5-min Rain = 0
KCL2 050743Z 30009KT 13/02 A2991 RMK A01 T01310018  RH  046%=      5-min Rain = 0
KCL2 050744Z 30009KT 13/01 A2991 RMK A01 T01320014  RH  045%=      5-min Rain = 0
KCL2 050745Z 30008KT 13/01 A2991 RMK A01 T01340011  RH  043%=      5-min Rain = 0
KCL2 050746Z 30008KT 13/01 A2991 RMK A01 T01340012  RH  043%=      5-min Rain = 0
KCL2 050747Z 30008KT 13/01 A2991 RMK A01 T01330011  RH  043%=      5-min Rain = 0
KCL2 050748Z 29008KT 13/01 A2991 RMK A01 T01310010  RH  044%=      5-min Rain = 0
KCL2 050749Z 29009KT 13/01 A2991 RMK A01 T01300008  RH  043%=      5-min Rain = 0
KCL2 050750Z 29009KT 13/01 A2991 RMK A01 T01300006  RH  042%=      5-min Rain = 0
KCL2 050751Z 29009KT 13/00 A2991 RMK A01 T01300004  RH  042%=      5-min Rain = 0
KCL2 050752Z 29009KT 13/00 A2991 RMK A01 T01300002  RH  041%=      5-min Rain = 0
KCL2 050753Z 29009KT 13/00 A2991 RMK A01 T013100-0  RH  041%=      5-min Rain = 0
KCL2 050754Z 29010KT 13/M00 A2991 RMK A01 T01311001  RH  040%=      5-min Rain = 0
KCL2 050755Z 29010KT 13/M00 A2991 RMK A01 T01301003  RH  040%=      5-min Rain = 0
KCL2 050756Z 29009KT 13/M00 A2991 RMK A01 T01301004  RH  040%=      5-min Rain = 0
KCL2 050757Z 29009KT 13/M01 A2991 RMK A01 T01301005  RH  039%=      5-min Rain = 0
KCL2 050758Z 29008KT 13/M01 A2991 RMK A01 T01301007  RH  039%=      5-min Rain = 0
KCL2 050759Z 29009KT 13/M01 A2991 RMK A01 T01291007  RH  039%=      5-min Rain = 0
KCL2 050800Z 29008KT 13/M01 A2991 RMK A01 T01291009  RH  039%=      5-min Rain = 0
KCL2 050801Z 29008KT 13/M01 A2991 RMK A01 T01291010  RH  038%=      5-min Rain = 0
KCL2 050802Z 29008KT 13/M01 A2991 RMK A01 T01281011  RH  038%=      5-min Rain = 0
KCL2 050803Z 29008KT 13/M01 A2991 RMK A01 T01281012  RH  038%=      5-min Rain = 0
KCL2 050804Z 29008KT 13/M01 A2991 RMK A01 T01271013  RH  038%=      5-min Rain = 0
KCL2 050805Z 29008KT 13/M02 A2991 RMK A01 T01261015  RH  038%=      5-min Rain = 0
KCL2 050806Z 29008KT 13/M02 A2991 RMK A01 T01251015  RH  038%=      5-min Rain = 0
KCL2 050807Z 29007KT 13/M02 A2991 RMK A01 T01251016  RH  038%=      5-min Rain = 0
KCL2 050808Z 29007KT 12/M02 A2991 RMK A01 T01241017  RH  037%=      5-min Rain = 0
KCL2 050809Z 28007KT 13/M02 A2991 RMK A01 T01251018  RH  037%=      5-min Rain = 0
KCL2 050810Z 28007KT 13/M02 A2991 RMK A01 T01251019  RH  037%=      5-min Rain = 0
KCL2 050811Z 28007KT 13/M02 A2991 RMK A01 T01261019  RH  037%=      5-min Rain = 0
KCL2 050812Z 28006KT 13/M02 A2991 RMK A01 T01261019  RH  036%=      5-min Rain = 0
KCL2 050813Z 28006KT 13/M02 A2991 RMK A01 T01261020  RH  036%=      5-min Rain = 0
KCL2 050814Z 28006KT 13/M02 A2991 RMK A01 T01251021  RH  036%=      5-min Rain = 0
KCL2 050815Z 27005KT 13/M02 A2991 RMK A01 T01251021  RH  036%=      5-min Rain = 0
KCL2 050816Z 28006KT 13/M02 A2991 RMK A01 T01251022  RH  036%=      5-min Rain = 0
KCL2 050817Z 28006KT 13/M02 A2991 RMK A01 T01251022  RH  036%=      5-min Rain = 0
KCL2 050818Z 28006KT 13/M02 A2991 RMK A01 T01251022  RH  036%=      5-min Rain = 0
KCL2 050819Z 27006KT 12/M02 A2991 RMK A01 T01241023  RH  036%=      5-min Rain = 0
KCL2 050820Z 27006KT 12/M02 A2991 RMK A01 T01241023  RH  036%=      5-min Rain = 0
KCL2 050821Z 27006KT 12/M02 A2991 RMK A01 T01231023  RH  036%=      5-min Rain = 0
KCL2 050822Z 27006KT 12/M02 A2991 RMK A01 T01211023  RH  036%=      5-min Rain = 0
KCL2 050823Z 27007KT 12/M02 A2991 RMK A01 T01191023  RH  037%=      5-min Rain = 0
KCL2 050824Z 27007KT 12/M02 A2991 RMK A01 T01181023  RH  037%=      5-min Rain = 0
KCL2 050825Z 28007KT 12/M02 A2991 RMK A01 T01171023  RH  038%=      5-min Rain = 0
KCL2 050826Z 28006KT 12/M02 A2991 RMK A01 T01161022  RH  038%=      5-min Rain = 0
KCL2 050827Z 28006KT 12/M02 A2991 RMK A01 T01151023  RH  038%=      5-min Rain = 0
KCL2 050828Z 27006KT 12/M02 A2991 RMK A01 T01161022  RH  038%=      5-min Rain = 0
KCL2 050829Z 27006KT 12/M02 A2991 RMK A01 T01161022  RH  038%=      5-min Rain = 0
KCL2 050830Z 27007KT 12/M02 A2991 RMK A01 T01161022  RH  038%=      5-min Rain = 0
KCL2 050831Z 27007KT 12/M02 A2991 RMK A01 T01151022  RH  038%=      5-min Rain = 0
KCL2 050832Z 27007KT 11/M02 A2991 RMK A01 T01141021  RH  039%=      5-min Rain = 0
KCL2 050833Z 27007KT 11/M02 A2991 RMK A01 T01131020  RH  039%=      5-min Rain = 0
KCL2 050834Z 27007KT 11/M02 A2991 RMK A01 T01121020  RH  040%=      5-min Rain = 0
KCL2 050835Z 27007KT 11/M02 A2991 RMK A01 T01121020  RH  040%=      5-min Rain = 0
KCL2 050836Z 27007KT 11/M02 A2991 RMK A01 T01121020  RH  040%=      5-min Rain = 0
KCL2 050837Z 27007KT 11/M02 A2991 RMK A01 T01111020  RH  040%=      5-min Rain = 0
KCL2 050838Z 27006KT 11/M02 A2991 RMK A01 T01101021  RH  040%=      5-min Rain = 0
KCL2 050839Z 27006KT 11/M02 A2991 RMK A01 T01091021  RH  040%=      5-min Rain = 0
KCL2 050840Z 27006KT 11/M02 A2991 RMK A01 T01091022  RH  040%=      5-min Rain = 0
KCL2 050841Z 27006KT 11/M02 A2991 RMK A01 T01091023  RH  040%=      5-min Rain = 0
KCL2 050842Z 27007KT 11/M02 A2991 RMK A01 T01101023  RH  039%=      5-min Rain = 0
KCL2 050843Z 27007KT 11/M02 A2991 RMK A01 T01111023  RH  039%=      5-min Rain = 0
KCL2 050844Z 27007KT 11/M02 A2991 RMK A01 T01111023  RH  039%=      5-min Rain = 0
KCL2 050845Z 27008KT 11/M02 A2991 RMK A01 T01121024  RH  039%=      5-min Rain = 0
KCL2 050846Z 27006KT 11/M02 A2991 RMK A01 T01121024  RH  039%=      5-min Rain = 0
KCL2 050847Z 27007KT 11/M02 A2991 RMK A01 T01121024  RH  039%=      5-min Rain = 0
KCL2 050848Z 27007KT 11/M02 A2991 RMK A01 T01111024  RH  039%=      5-min Rain = 0
KCL2 050849Z 27007KT 11/M03 A2991 RMK A01 T01101025  RH  039%=      5-min Rain = 0
KCL2 050850Z 27007KT 11/M03 A2991 RMK A01 T01101026  RH  039%=      5-min Rain = 0
KCL2 050851Z 26007KT 11/M03 A2991 RMK A01 T01091026  RH  039%=      5-min Rain = 0
KCL2 050852Z 26007KT 11/M03 A2991 RMK A01 T01091027  RH  038%=      5-min Rain = 0
KCL2 050853Z 26007KT 11/M03 A2991 RMK A01 T01101027  RH  038%=      5-min Rain = 0
KCL2 050854Z 26008KT 11/M03 A2991 RMK A01 T01091028  RH  038%=      5-min Rain = 0
KCL2 050855Z 27007KT 11/M03 A2991 RMK A01 T01091028  RH  038%=      5-min Rain = 0
KCL2 050856Z 26007KT 11/M03 A2991 RMK A01 T01081028  RH  038%=      5-min Rain = 0
KCL2 050857Z 27007KT 11/M03 A2991 RMK A01 T01081028  RH  038%=      5-min Rain = 0
KCL2 050858Z 27007KT 11/M03 A2991 RMK A01 T01071029  RH  038%=      5-min Rain = 0
KCL2 050859Z 26007KT 11/M03 A2991 RMK A01 T01071029  RH  038%=      5-min Rain = 0
KCL2 050900Z 26007KT 11/M03 A2991 RMK A01 T01071029  RH  038%=      5-min Rain = 0
KCL2 050901Z 26007KT 11/M03 A2991 RMK A01 T01071030  RH  038%=      5-min Rain = 0
KCL2 050902Z 26007KT 11/M03 A2991 RMK A01 T01071030  RH  038%=      5-min Rain = 0
KCL2 050903Z 26007KT 11/M03 A2991 RMK A01 T01081030  RH  038%=      5-min Rain = 0
KCL2 050904Z 26007KT 11/M03 A2991 RMK A01 T01081030  RH  038%=      5-min Rain = 0
KCL2 050905Z 26007KT 11/M03 A2991 RMK A01 T01081030  RH  038%=      5-min Rain = 0
KCL2 050906Z 26007KT 11/M03 A2991 RMK A01 T01081030  RH  038%=      5-min Rain = 0
KCL2 050907Z 26007KT 11/M03 A2991 RMK A01 T01081030  RH  038%=      5-min Rain = 0
KCL2 050908Z 26007KT 11/M03 A2991 RMK A01 T01081031  RH  038%=      5-min Rain = 0
KCL2 050909Z 26007KT 11/M03 A2991 RMK A01 T01081030  RH  038%=      5-min Rain = 0
KCL2 050910Z 26007KT 11/M03 A2991 RMK A01 T01071031  RH  038%=      5-min Rain = 0
KCL2 050911Z 26008KT 11/M03 A2991 RMK A01 T01071031  RH  038%=      5-min Rain = 0
KCL2 050912Z 26007KT 11/M03 A2991 RMK A01 T01071031  RH  038%=      5-min Rain = 0
KCL2 050913Z 26007KT 11/M03 A2991 RMK A01 T01071031  RH  038%=      5-min Rain = 0
KCL2 050914Z 26007KT 11/M03 A2991 RMK A01 T01061031  RH  038%=      5-min Rain = 0
KCL2 050915Z 26007KT 11/M03 A2991 RMK A01 T01061031  RH  038%=      5-min Rain = 0
KCL2 050916Z 26007KT 11/M03 A2991 RMK A01 T01061031  RH  038%=      5-min Rain = 0
KCL2 050917Z 26007KT 11/M03 A2991 RMK A01 T01061031  RH  038%=      5-min Rain = 0
KCL2 050918Z 27006KT 11/M03 A2991 RMK A01 T01051031  RH  038%=      5-min Rain = 0
KCL2 050919Z 26006KT 11/M03 A2991 RMK A01 T01051032  RH  038%=      5-min Rain = 0
KCL2 050920Z 26006KT 11/M03 A2991 RMK A01 T01051032  RH  038%=      5-min Rain = 0
KCL2 050921Z 27006KT 11/M03 A2991 RMK A01 T01061032  RH  038%=      5-min Rain = 0
KCL2 050922Z 26007KT 11/M03 A2991 RMK A01 T01071032  RH  037%=      5-min Rain = 0
KCL2 050923Z 26006KT 11/M03 A2991 RMK A01 T01061032  RH  038%=      5-min Rain = 0
KCL2 050924Z 26007KT 11/M03 A2991 RMK A01 T01061032  RH  038%=      5-min Rain = 0
KCL2 050925Z 26007KT 11/M03 A2991 RMK A01 T01051033  RH  038%=      5-min Rain = 0
KCL2 050926Z 27007KT 10/M03 A2991 RMK A01 T01041033  RH  038%=      5-min Rain = 0
KCL2 050927Z 26007KT 10/M03 A2991 RMK A01 T01041033  RH  038%=      5-min Rain = 0
KCL2 050928Z 27007KT 10/M03 A2991 RMK A01 T01041034  RH  038%=      5-min Rain = 0
KCL2 050929Z 27007KT 10/M03 A299 RMK A01 T01041033  RH  038%=      5-min Rain = 0
KCL2 050930Z 27007KT 11/M03 A299 RMK A01 T01051033  RH  038%=      5-min Rain = 0
KCL2 050931Z 27007KT 11/M03 A299 RMK A01 T01051034  RH  038%=      5-min Rain = 0
KCL2 050932Z 27007KT 11/M03 A299 RMK A01 T01051033  RH  038%=      5-min Rain = 0
KCL2 050933Z 27007KT 11/M03 A299 RMK A01 T01051033  RH  038%=      5-min Rain = 0
KCL2 050934Z 27007KT 11/M03 A2991 RMK A01 T01051033  RH  038%=      5-min Rain = 0
KCL2 050935Z 27006KT 11/M03 A2991 RMK A01 T01051032  RH  038%=      5-min Rain = 0
KCL2 050936Z 27006KT 10/M03 A2991 RMK A01 T01041033  RH  038%=      5-min Rain = 0
KCL2 050937Z 27006KT 10/M03 A2991 RMK A01 T01041033  RH  038%=      5-min Rain = 0
KCL2 050938Z 27006KT 10/M03 A2991 RMK A01 T01041033  RH  038%=      5-min Rain = 0
KCL2 050939Z 27006KT 10/M03 A299 RMK A01 T01031034  RH  038%=      5-min Rain = 0
KCL2 050940Z 27006KT 10/M03 A299 RMK A01 T01031034  RH  038%=      5-min Rain = 0
KCL2 050941Z 27007KT 10/M03 A299 RMK A01 T01031034  RH  038%=      5-min Rain = 0
KCL2 050942Z 27007KT 10/M03 A299 RMK A01 T01021034  RH  038%=      5-min Rain = 0
KCL2 050943Z 27007KT 10/M03 A299 RMK A01 T01021034  RH  038%=      5-min Rain = 0
KCL2 050944Z 27007KT 10/M04 A299 RMK A01 T01021035  RH  038%=      5-min Rain = 0
KCL2 050945Z 27007KT 10/M04 A299 RMK A01 T01021035  RH  038%=      5-min Rain = 0
KCL2 050946Z 27007KT 10/M04 A299 RMK A01 T01021035  RH  038%=      5-min Rain = 0
KCL2 050947Z 27007KT 10/M03 A299 RMK A01 T01021034  RH  038%=      5-min Rain = 0
KCL2 050948Z 27007KT 10/M04 A299 RMK A01 T01011035  RH  038%=      5-min Rain = 0
KCL2 050949Z 27006KT 10/M04 A299 RMK A01 T01001035  RH  038%=      5-min Rain = 0
KCL2 050950Z 27006KT 10/M04 A299 RMK A01 T01001035  RH  038%=      5-min Rain = 0
KCL2 050951Z 27006KT 10/M04 A299 RMK A01 T01011035  RH  038%=      5-min Rain = 0
KCL2 050952Z 27005KT 10/M04 A299 RMK A01 T01011035  RH  038%=      5-min Rain = 0
KCL2 050953Z 27005KT 10/M04 A299 RMK A01 T01011035  RH  038%=      5-min Rain = 0
KCL2 050954Z 27006KT 10/M04 A299 RMK A01 T01011036  RH  038%=      5-min Rain = 0
KCL2 050955Z 27006KT 10/M04 A299 RMK A01 T01021036  RH  038%=      5-min Rain = 0
KCL2 050956Z 27006KT 10/M04 A299 RMK A01 T01021036  RH  038%=      5-min Rain = 0
KCL2 050957Z 26006KT 10/M04 A299 RMK A01 T01031036  RH  037%=      5-min Rain = 0
KCL2 050958Z 26006KT 10/M04 A2991 RMK A01 T01031037  RH  037%=      5-min Rain = 0
KCL2 050959Z 26006KT 10/M04 A2991 RMK A01 T01031037  RH  037%=      5-min Rain = 0
KCL2 051000Z 27006KT 10/M04 A2991 RMK A01 T01021037  RH  037%=      5-min Rain = 0
KCL2 051001Z 26006KT 10/M04 A2991 RMK A01 T01021037  RH  037%=      5-min Rain = 0
KCL2 051002Z 27007KT 10/M04 A2991 RMK A01 T01011037  RH  038%=      5-min Rain = 0
KCL2 051003Z 27007KT 10/M04 A2991 RMK A01 T01011036  RH  038%=      5-min Rain = 0
KCL2 051004Z 27007KT 10/M04 A2991 RMK A01 T01011035  RH  038%=      5-min Rain = 0
KCL2 051005Z 26006KT 10/M04 A2991 RMK A01 T01021035  RH  038%=      5-min Rain = 0
KCL2 051006Z 27006KT 10/M04 A2991 RMK A01 T01021035  RH  038%=      5-min Rain = 0
KCL2 051007Z 27006KT 10/M04 A2991 RMK A01 T01021036  RH  038%=      5-min Rain = 0
KCL2 051008Z 27006KT 10/M04 A2991 RMK A01 T01031035  RH  038%=      5-min Rain = 0
KCL2 051009Z 27007KT 10/M03 A2991 RMK A01 T01031034  RH  038%=      5-min Rain = 0
KCL2 051010Z 27007KT 10/M03 A2991 RMK A01 T01021034  RH  038%=      5-min Rain = 0
KCL2 051011Z 27007KT 10/M03 A2991 RMK A01 T01021034  RH  038%=      5-min Rain = 0
KCL2 051012Z 27007KT 10/M03 A2991 RMK A01 T01021033  RH  039%=      5-min Rain = 0
KCL2 051013Z 27007KT 10/M03 A2991 RMK A01 T01011033  RH  039%=      5-min Rain = 0
KCL2 051014Z 27006KT 10/M03 A2991 RMK A01 T01001033  RH  039%=      5-min Rain = 0
KCL2 051015Z 27007KT 10/M03 A2991 RMK A01 T01001032  RH  039%=      5-min Rain = 0
KCL2 051016Z 27006KT 10/M03 A2991 RMK A01 T00991033  RH  040%=      5-min Rain = 0
KCL2 051017Z 28006KT 10/M03 A2991 RMK A01 T00981033  RH  040%=      5-min Rain = 0
KCL2 051018Z 27006KT 10/M03 A2991 RMK A01 T00981033  RH  040%=      5-min Rain = 0
KCL2 051019Z 28006KT 10/M03 A2991 RMK A01 T00981033  RH  040%=      5-min Rain = 0
KCL2 051020Z 28006KT 10/M03 A2991 RMK A01 T00981033  RH  040%=      5-min Rain = 0
KCL2 051021Z 28006KT 10/M03 A2991 RMK A01 T00981033  RH  040%=      5-min Rain = 0
KCL2 051022Z 28006KT 10/M03 A2991 RMK A01 T00981032  RH  040%=      5-min Rain = 0
KCL2 051023Z 28006KT 10/M03 A2991 RMK A01 T00981032  RH  040%=      5-min Rain = 0
KCL2 051024Z 28006KT 10/M03 A2991 RMK A01 T00981032  RH  040%=      5-min Rain = 0
KCL2 051025Z 28005KT 10/M03 A2991 RMK A01 T00971032  RH  040%=      5-min Rain = 0
KCL2 051026Z 28006KT 10/M03 A2991 RMK A01 T00971032  RH  040%=      5-min Rain = 0
KCL2 051027Z 28005KT 10/M03 A2991 RMK A01 T00961031  RH  041%=      5-min Rain = 0
KCL2 051028Z 29005KT 10/M03 A2991 RMK A01 T00951031  RH  041%=      5-min Rain = 0
KCL2 051029Z 28005KT 09/M03 A2991 RMK A01 T00931031  RH  041%=      5-min Rain = 0
KCL2 051030Z 28005KT 09/M03 A2991 RMK A01 T00931032  RH  041%=      5-min Rain = 0
KCL2 051031Z 28006KT 09/M03 A2991 RMK A01 T00931031  RH  041%=      5-min Rain = 0
KCL2 051032Z 29006KT 09/M03 A2991 RMK A01 T00941032  RH  041%=      5-min Rain = 0
KCL2 051033Z 29006KT 09/M03 A2991 RMK A01 T00941031  RH  041%=      5-min Rain = 0
KCL2 051034Z 29007KT 09/M03 A2991 RMK A01 T00941031  RH  041%=      5-min Rain = 0
KCL2 051035Z 29007KT 09/M03 A2991 RMK A01 T00941031  RH  041%=      5-min Rain = 0
KCL2 051036Z 29007KT 09/M03 A2991 RMK A01 T00941030  RH  041%=      5-min Rain = 0
KCL2 051037Z 29007KT 10/M03 A2991 RMK A01 T00951030  RH  041%=      5-min Rain = 0
KCL2 051038Z 29008KT 10/M03 A2991 RMK A01 T00951030  RH  041%=      5-min Rain = 0
KCL2 051039Z 28008KT 10/M03 A2991 RMK A01 T00961029  RH  041%=      5-min Rain = 0
KCL2 051040Z 28009KT 10/M03 A2991 RMK A01 T00961028  RH  041%=      5-min Rain = 0
KCL2 051041Z 29008KT 10/M03 A2992 RMK A01 T00981027  RH  041%=      5-min Rain = 0
KCL2 051042Z 29009KT 10/M03 A2991 RMK A01 T01001027  RH  041%=      5-min Rain = 0
KCL2 051043Z 28009KT 10/M03 A2991 RMK A01 T01021027  RH  040%=      5-min Rain = 0
KCL2 051044Z 29009KT 10/M03 A2991 RMK A01 T01031027  RH  040%=      5-min Rain = 0
KCL2 051045Z 29009KT 10/M03 A2992 RMK A01 T01041027  RH  040%=      5-min Rain = 0
KCL2 051046Z 29010KT 10/M03 A2992 RMK A01 T01041026  RH  040%=      5-min Rain = 0
KCL2 051047Z 29010KT 10/M03 A2992 RMK A01 T01041026  RH  040%=      5-min Rain = 0
KCL2 051048Z 29011KT 11/M03 A2992 RMK A01 T01051025  RH  040%=      5-min Rain = 0
KCL2 051049Z 30010KT 11/M03 A2992 RMK A01 T01061026  RH  040%=      5-min Rain = 0
KCL2 051050Z 29011KT 11/M03 A2992 RMK A01 T01061025  RH  040%=      5-min Rain = 0
KCL2 051051Z 29012KT 11/M03 A2992 RMK A01 T01071025  RH  040%=      5-min Rain = 0
KCL2 051052Z 29011KT 11/M03 A2992 RMK A01 T01081025  RH  039%=      5-min Rain = 0
KCL2 051053Z 30012KT 11/M03 A2992 RMK A01 T01091025  RH  039%=      5-min Rain = 0
KCL2 051054Z 30010KT 11/M03 A2992 RMK A01 T01081025  RH  039%=      5-min Rain = 0
KCL2 051055Z 30012KT 11/M03 A2992 RMK A01 T01081026  RH  039%=      5-min Rain = 0
KCL2 051056Z 30012KT 11/M03 A2992 RMK A01 T01091026  RH  039%=      5-min Rain = 0
KCL2 051057Z 30010KT 11/M03 A2992 RMK A01 T01091025  RH  039%=      5-min Rain = 0
KCL2 051058Z 30011KT 11/M03 A2992 RMK A01 T01091025  RH  039%=      5-min Rain = 0
KCL2 051059Z 30011KT 11/M03 A2992 RMK A01 T01081025  RH  039%=      5-min Rain = 0
KCL2 051100Z 30011KT 11/M03 A2992 RMK A01 T01081025  RH  039%=      5-min Rain = 0
KCL2 051101Z 30011KT 11/M03 A2992 RMK A01 T01081025  RH  039%=      5-min Rain = 0
KCL2 051102Z 30011KT 11/M03 A2993 RMK A01 T01081025  RH  039%=      5-min Rain = 0
KCL2 051103Z 30010KT 11/M03 A2993 RMK A01 T01081025  RH  039%=      5-min Rain = 0
KCL2 051104Z 30011KT 11/M03 A2993 RMK A01 T01071025  RH  039%=      5-min Rain = 0
KCL2 051105Z 30011KT 11/M03 A2993 RMK A01 T01061025  RH  040%=      5-min Rain = 0
KCL2 051106Z 30010KT 11/M03 A2993 RMK A01 T01051025  RH  040%=      5-min Rain = 0
KCL2 051107Z 30010KT 10/M03 A2993 RMK A01 T01041025  RH  040%=      5-min Rain = 0
KCL2 051108Z 30011KT 10/M03 A2993 RMK A01 T01041025  RH  040%=      5-min Rain = 0
KCL2 051109Z 30009KT 10/M03 A2993 RMK A01 T01041026  RH  040%=      5-min Rain = 0
KCL2 051110Z 30011KT 10/M03 A2993 RMK A01 T01041026  RH  040%=      5-min Rain = 0
KCL2 051111Z 30010KT 10/M03 A2993 RMK A01 T01041026  RH  040%=      5-min Rain = 0
KCL2 051112Z 30011KT 11/M03 A2993 RMK A01 T01051026  RH  040%=      5-min Rain = 0
KCL2 051113Z 30009KT 11/M03 A2993 RMK A01 T01051026  RH  040%=      5-min Rain = 0
KCL2 051114Z 30010KT 10/M03 A2993 RMK A01 T01041026  RH  040%=      5-min Rain = 0
KCL2 051115Z 30011KT 10/M03 A2993 RMK A01 T01031025  RH  040%=      5-min Rain = 0
KCL2 051116Z 30009KT 10/M03 A2993 RMK A01 T01031026  RH  041%=      5-min Rain = 0
KCL2 051117Z 30010KT 10/M03 A2993 RMK A01 T01021025  RH  041%=      5-min Rain = 0
KCL2 051118Z 29010KT 10/M03 A2993 RMK A01 T01021025  RH  041%=      5-min Rain = 0
KCL2 051119Z 30010KT 10/M03 A2993 RMK A01 T01021025  RH  041%=      5-min Rain = 0
KCL2 051120Z 30010KT 10/M03 A2993 RMK A01 T01021025  RH  041%=      5-min Rain = 0
KCL2 051121Z 30011KT 10/M03 A2993 RMK A01 T01011026  RH  041%=      5-min Rain = 0
KCL2 051122Z 30011KT 10/M03 A2993 RMK A01 T01021026  RH  041%=      5-min Rain = 0
KCL2 051123Z 30011KT 10/M03 A2993 RMK A01 T01021026  RH  041%=      5-min Rain = 0
KCL2 051124Z 30010KT 10/M03 A2993 RMK A01 T01021026  RH  041%=      5-min Rain = 0
KCL2 051125Z 30011KT 10/M03 A2993 RMK A01 T01021025  RH  041%=      5-min Rain = 0
KCL2 051126Z 29009KT 10/M03 A2993 RMK A01 T01001025  RH  041%=      5-min Rain = 0
KCL2 051127Z 30010KT 10/M03 A2993 RMK A01 T00991025  RH  041%=      5-min Rain = 0
KCL2 051128Z 30010KT 10/M03 A2993 RMK A01 T01001025  RH  041%=      5-min Rain = 0
KCL2 051129Z 29011KT 10/M03 A2993 RMK A01 T01001026  RH  041%=      5-min Rain = 0
KCL2 051130Z 29010KT 10/M03 A2994 RMK A01 T01001026  RH  041%=      5-min Rain = 0
KCL2 051131Z 29010KT 10/M03 A2994 RMK A01 T00991025  RH  041%=      5-min Rain = 0
KCL2 051132Z 30009KT 10/M03 A2994 RMK A01 T00991025  RH  042%=      5-min Rain = 0
KCL2 051133Z 30010KT 10/M03 A2994 RMK A01 T00981025  RH  042%=      5-min Rain = 0
KCL2 051134Z 30010KT 10/M03 A2994 RMK A01 T00981026  RH  042%=      5-min Rain = 0
KCL2 051135Z 30009KT 10/M03 A2994 RMK A01 T00981025  RH  042%=      5-min Rain = 0
KCL2 051136Z 29010KT 10/M03 A2994 RMK A01 T00981025  RH  042%=      5-min Rain = 0
KCL2 051137Z 29010KT 10/M03 A2994 RMK A01 T00981026  RH  042%=      5-min Rain = 0
KCL2 051138Z 29010KT 10/M03 A2994 RMK A01 T00981026  RH  042%=      5-min Rain = 0
KCL2 051139Z 29009KT 10/M03 A2994 RMK A01 T00981025  RH  042%=      5-min Rain = 0
KCL2 051140Z 29009KT 10/M03 A2994 RMK A01 T00971025  RH  042%=      5-min Rain = 0
KCL2 051141Z 29010KT 10/M03 A2994 RMK A01 T00961025  RH  043%=      5-min Rain = 0
KCL2 051142Z 29010KT 10/M03 A2994 RMK A01 T00961025  RH  042%=      5-min Rain = 0
KCL2 051143Z 29010KT 10/M03 A2994 RMK A01 T00971025  RH  042%=      5-min Rain = 0
KCL2 051144Z 29010KT 10/M03 A2994 RMK A01 T00971025  RH  042%=      5-min Rain = 0
KCL2 051145Z 30010KT 10/M03 A2994 RMK A01 T00971026  RH  042%=      5-min Rain = 0
KCL2 051146Z 29011KT 10/M03 A2994 RMK A01 T00971026  RH  042%=      5-min Rain = 0
KCL2 051147Z 30012KT 10/M03 A2994 RMK A01 T00981026  RH  042%=      5-min Rain = 0
KCL2 051148Z 29011KT 10/M03 A2994 RMK A01 T00991026  RH  041%=      5-min Rain = 0
KCL2 051149Z 29010KT 10/M03 A2994 RMK A01 T01001026  RH  041%=      5-min Rain = 0
KCL2 051150Z 29012KT 10/M03 A2994 RMK A01 T01001025  RH  041%=      5-min Rain = 0
KCL2 051151Z 29011KT 10/M03 A2994 RMK A01 T01001026  RH  041%=      5-min Rain = 0
KCL2 051152Z 29011KT 10/M03 A2994 RMK A01 T01001026  RH  041%=      5-min Rain = 0
KCL2 051153Z 29011KT 10/M03 A2994 RMK A01 T01001026  RH  041%=      5-min Rain = 0
KCL2 051154Z 29010KT 10/M03 A2994 RMK A01 T01001026  RH  041%=      5-min Rain = 0
KCL2 051155Z 29010KT 10/M03 A2994 RMK A01 T01001026  RH  041%=      5-min Rain = 0
KCL2 051156Z 29011KT 10/M03 A2994 RMK A01 T01001026  RH  041%=      5-min Rain = 0
KCL2 051157Z 29011KT 10/M03 A2994 RMK A01 T01001026  RH  041%=      5-min Rain = 0
KCL2 051158Z 29010KT 10/M03 A2995 RMK A01 T01001026  RH  041%=      5-min Rain = 0
KCL2 051159Z 30010KT 10/M03 A2995 RMK A01 T01001026  RH  041%=      5-min Rain = 0
KCL2 051200Z 29010KT 10/M03 A2995 RMK A01 T00991026  RH  041%=      5-min Rain = 0
KCL2 051201Z 29011KT 10/M03 A2995 RMK A01 T00991026  RH  042%=      5-min Rain = 0
KCL2 051202Z 29011KT 10/M03 A2995 RMK A01 T00991025  RH  042%=      5-min Rain = 0
KCL2 051203Z 29011KT 10/M03 A2995 RMK A01 T00971025  RH  042%=      5-min Rain = 0
KCL2 051204Z 30011KT 10/M03 A2995 RMK A01 T00971025  RH  042%=      5-min Rain = 0
KCL2 051205Z 29011KT 10/M03 A2995 RMK A01 T00981025  RH  042%=      5-min Rain = 0
KCL2 051206Z 30012KT 10/M02 A2995 RMK A01 T00981024  RH  042%=      5-min Rain = 0
KCL2 051207Z 30011KT 10/M03 A2995 RMK A01 T00981025  RH  042%=      5-min Rain = 0
KCL2 051208Z 30011KT 10/M03 A2995 RMK A01 T00981025  RH  042%=      5-min Rain = 0
KCL2 051209Z 30013KT 10/M03 A2995 RMK A01 T00981025  RH  042%=      5-min Rain = 0
KCL2 051210Z 30010KT 10/M03 A2995 RMK A01 T00991025  RH  042%=      5-min Rain = 0
KCL2 051211Z 30010KT 10/M02 A2995 RMK A01 T00991024  RH  042%=      5-min Rain = 0
KCL2 051212Z 30012KT 10/M03 A2995 RMK A01 T00981025  RH  042%=      5-min Rain = 0
KCL2 051213Z 30010KT 10/M03 A2995 RMK A01 T00981025  RH  042%=      5-min Rain = 0
KCL2 051214Z 30011KT 10/M03 A2995 RMK A01 T00981025  RH  042%=      5-min Rain = 0
KCL2 051215Z 30010KT 10/M03 A2995 RMK A01 T00981026  RH  042%=      5-min Rain = 0
KCL2 051216Z 30011KT 10/M03 A2995 RMK A01 T00981025  RH  042%=      5-min Rain = 0
KCL2 051217Z 30010KT 10/M03 A2995 RMK A01 T00981025  RH  042%=      5-min Rain = 0
KCL2 051218Z 31010KT 10/M02 A2995 RMK A01 T00971024  RH  042%=      5-min Rain = 0
KCL2 051219Z 31011KT 10/M02 A2995 RMK A01 T00961024  RH  043%=      5-min Rain = 0
KCL2 051220Z 31011KT 10/M02 A2995 RMK A01 T00951024  RH  043%=      5-min Rain = 0
KCL2 051221Z 31010KT 10/M02 A2995 RMK A01 T00951024  RH  043%=      5-min Rain = 0
KCL2 051222Z 31010KT 09/M02 A2995 RMK A01 T00931024  RH  044%=      5-min Rain = 0
KCL2 051223Z 31010KT 09/M02 A2995 RMK A01 T00931023  RH  044%=      5-min Rain = 0
KCL2 051224Z 31010KT 09/M02 A2995 RMK A01 T00921023  RH  044%=      5-min Rain = 0
KCL2 051225Z 30009KT 09/M02 A2995 RMK A01 T00921023  RH  045%=      5-min Rain = 0
KCL2 051226Z 31010KT 09/M02 A2996 RMK A01 T00901023  RH  045%=      5-min Rain = 0
KCL2 051227Z 31010KT 09/M02 A2996 RMK A01 T00901023  RH  045%=      5-min Rain = 0
KCL2 051228Z 30010KT 09/M02 A2996 RMK A01 T00901022  RH  045%=      5-min Rain = 0
KCL2 051229Z 31010KT 09/M02 A2996 RMK A01 T00891022  RH  045%=      5-min Rain = 0
KCL2 051230Z 30010KT 09/M02 A2996 RMK A01 T00891022  RH  046%=      5-min Rain = 0
KCL2 051231Z 30010KT 09/M02 A2996 RMK A01 T00881022  RH  046%=      5-min Rain = 0
KCL2 051232Z 30011KT 09/M02 A2996 RMK A01 T00881022  RH  046%=      5-min Rain = 0
KCL2 051233Z 30010KT 09/M02 A2996 RMK A01 T00881022  RH  046%=      5-min Rain = 0
KCL2 051234Z 30010KT 09/M02 A2996 RMK A01 T00881022  RH  046%=      5-min Rain = 0
KCL2 051235Z 31010KT 09/M02 A2996 RMK A01 T00891022  RH  046%=      5-min Rain = 0
KCL2 051236Z 31010KT 09/M02 A2996 RMK A01 T00881021  RH  046%=      5-min Rain = 0
KCL2 051237Z 31010KT 09/M02 A2996 RMK A01 T00881021  RH  046%=      5-min Rain = 0
KCL2 051238Z 30010KT 09/M02 A2996 RMK A01 T00881021  RH  046%=      5-min Rain = 0
KCL2 051239Z 30010KT 09/M02 A2996 RMK A01 T00881021  RH  046%=      5-min Rain = 0
KCL2 051240Z 30010KT 09/M02 A2996 RMK A01 T00881021  RH  046%=      5-min Rain = 0
KCL2 051241Z 30009KT 09/M02 A2996 RMK A01 T00881021  RH  046%=      5-min Rain = 0
KCL2 051242Z 30009KT 09/M02 A2996 RMK A01 T00881021  RH  046%=      5-min Rain = 0
KCL2 051243Z 30010KT 09/M02 A2996 RMK A01 T00891021  RH  046%=      5-min Rain = 0
KCL2 051244Z 30010KT 09/M02 A2996 RMK A01 T00891022  RH  046%=      5-min Rain = 0
KCL2 051245Z 29010KT 09/M02 A2996 RMK A01 T00891022  RH  046%=      5-min Rain = 0
KCL2 051246Z 30010KT 09/M02 A2996 RMK A01 T00891021  RH  046%=      5-min Rain = 0
KCL2 051247Z 30011KT 09/M02 A2996 RMK A01 T00891022  RH  046%=      5-min Rain = 0
KCL2 051248Z 29009KT 09/M02 A2996 RMK A01 T00901021  RH  046%=      5-min Rain = 0
KCL2 051249Z 29009G14KT 09/M02 A2996 RMK A01 T00901021  RH  046%=      5-min Rain = 0
KCL2 051250Z 29010KT 09/M02 A2996 RMK A01 T00901022  RH  046%=      5-min Rain = 0
KCL2 051251Z 30009KT 09/M02 A2996 RMK A01 T00901021  RH  045%=      5-min Rain = 0
KCL2 051252Z 30010KT 09/M02 A2996 RMK A01 T00901021  RH  046%=      5-min Rain = 0
KCL2 051253Z 30010KT 09/M02 A2996 RMK A01 T00901020  RH  046%=      5-min Rain = 0
KCL2 051254Z 30010KT 09/M02 A2996 RMK A01 T00891020  RH  046%=      5-min Rain = 0
KCL2 051255Z 31009KT 09/M02 A2996 RMK A01 T00891021  RH  046%=      5-min Rain = 0
KCL2 051256Z 30011KT 09/M02 A2996 RMK A01 T00901020  RH  046%=      5-min Rain = 0
KCL2 051257Z 30009KT 09/M02 A2996 RMK A01 T00911020  RH  046%=      5-min Rain = 0
KCL2 051258Z 30010KT 09/M02 A2996 RMK A01 T00911020  RH  046%=      5-min Rain = 0
KCL2 051259Z 31010KT 09/M02 A2996 RMK A01 T00911019  RH  046%=      5-min Rain = 0
KCL2 051300Z 30009KT 09/M02 A2996 RMK A01 T00911019  RH  046%=      5-min Rain = 0
KCL2 051301Z 30009KT 09/M02 A2996 RMK A01 T00911019  RH  046%=      5-min Rain = 0
KCL2 051302Z 30008KT 09/M02 A2996 RMK A01 T00901019  RH  046%=      5-min Rain = 0
KCL2 051303Z 29009KT 09/M02 A2996 RMK A01 T00901019  RH  046%=      5-min Rain = 0
KCL2 051304Z 29009KT 09/M02 A2996 RMK A01 T00901019  RH  047%=      5-min Rain = 0
KCL2 051305Z 29010KT 09/M02 A2996 RMK A01 T00901019  RH  047%=      5-min Rain = 0
KCL2 051306Z 30009KT 09/M02 A2996 RMK A01 T00911018  RH  047%=      5-min Rain = 0
KCL2 051307Z 30011KT 09/M02 A2996 RMK A01 T00901018  RH  047%=      5-min Rain = 0
KCL2 051308Z 29010KT 09/M02 A2996 RMK A01 T00911017  RH  047%=      5-min Rain = 0
KCL2 051309Z 30010KT 09/M02 A2996 RMK A01 T00921017  RH  047%=      5-min Rain = 0
KCL2 051310Z 29010KT 09/M02 A2996 RMK A01 T00911017  RH  047%=      5-min Rain = 0
KCL2 051311Z 29011KT 09/M02 A2996 RMK A01 T00911017  RH  047%=      5-min Rain = 0
KCL2 051312Z 29009KT 09/M02 A2996 RMK A01 T00901016  RH  047%=      5-min Rain = 0
KCL2 051313Z 29010KT 09/M02 A2996 RMK A01 T00901016  RH  047%=      5-min Rain = 0
KCL2 051314Z 29010KT 09/M02 A2996 RMK A01 T00911016  RH  047%=      5-min Rain = 0
KCL2 051315Z 29010KT 09/M02 A2996 RMK A01 T00911015  RH  047%=      5-min Rain = 0
KCL2 051316Z 29010KT 09/M02 A2996 RMK A01 T00911015  RH  047%=      5-min Rain = 0
KCL2 051317Z 29010KT 09/M01 A2996 RMK A01 T00911014  RH  048%=      5-min Rain = 0
KCL2 051318Z 29010KT 09/M01 A2996 RMK A01 T00911014  RH  048%=      5-min Rain = 0
KCL2 051319Z 29009KT 09/M01 A2996 RMK A01 T00911014  RH  048%=      5-min Rain = 0
KCL2 051320Z 29010KT 09/M01 A2996 RMK A01 T00911013  RH  048%=      5-min Rain = 0
KCL2 051321Z 29010KT 09/M01 A2996 RMK A01 T00901013  RH  048%=      5-min Rain = 0
KCL2 051322Z 29010KT 09/M01 A2996 RMK A01 T00891013  RH  048%=      5-min Rain = 0
KCL2 051323Z 29010KT 09/M01 A2996 RMK A01 T00901013  RH  048%=      5-min Rain = 0
KCL2 051324Z 29008KT 09/M01 A2997 RMK A01 T00901013  RH  048%=      5-min Rain = 0
KCL2 051325Z 30010KT 09/M01 A2997 RMK A01 T00901013  RH  049%=      5-min Rain = 0
KCL2 051326Z 30009KT 09/M01 A2997 RMK A01 T00901013  RH  048%=      5-min Rain = 0
KCL2 051327Z 29009KT 09/M01 A2997 RMK A01 T00901013  RH  048%=      5-min Rain = 0
KCL2 051328Z 29011KT 09/M01 A2997 RMK A01 T00901012  RH  049%=      5-min Rain = 0
KCL2 051329Z 29010KT 09/M01 A2997 RMK A01 T00911012  RH  048%=      5-min Rain = 0
KCL2 051330Z 29011KT 09/M01 A2997 RMK A01 T00921012  RH  048%=      5-min Rain = 0
KCL2 051331Z 29009KT 09/M01 A2997 RMK A01 T00921011  RH  048%=      5-min Rain = 0
KCL2 051332Z 29011KT 09/M01 A2997 RMK A01 T00931010  RH  048%=      5-min Rain = 0
KCL2 051333Z 29011KT 09/M01 A2997 RMK A01 T00931010  RH  048%=      5-min Rain = 0
KCL2 051334Z 29010KT 09/M01 A2997 RMK A01 T00931010  RH  048%=      5-min Rain = 0
KCL2 051335Z 29011KT 09/M01 A2997 RMK A01 T00941010  RH  048%=      5-min Rain = 0
KCL2 051336Z 29011KT 10/M01 A2997 RMK A01 T00951009  RH  048%=      5-min Rain = 0
KCL2 051337Z 29010KT 10/M01 A2998 RMK A01 T00951009  RH  048%=      5-min Rain = 0
KCL2 051338Z 29010KT 10/M01 A2998 RMK A01 T00951009  RH  048%=      5-min Rain = 0
KCL2 051339Z 29010KT 10/M01 A2998 RMK A01 T00951008  RH  049%=      5-min Rain = 0
KCL2 051340Z 29011KT 10/M01 A2998 RMK A01 T00951008  RH  048%=      5-min Rain = 0
KCL2 051341Z 29011KT 10/M01 A2998 RMK A01 T00961008  RH  048%=      5-min Rain = 0
KCL2 051342Z 29011KT 10/M01 A2998 RMK A01 T00971007  RH  048%=      5-min Rain = 0
KCL2 051343Z 29010KT 10/M01 A2998 RMK A01 T00971007  RH  048%=      5-min Rain = 0
KCL2 051344Z 29011KT 10/M01 A2998 RMK A01 T00971006  RH  049%=      5-min Rain = 0
KCL2 051345Z 29010KT 10/M01 A2998 RMK A01 T00971007  RH  048%=      5-min Rain = 0
KCL2 051346Z 29010KT 10/M01 A2998 RMK A01 T00981007  RH  048%=      5-min Rain = 0
KCL2 051347Z 29008G13KT 10/M01 A2998 RMK A01 T00981007  RH  048%=      5-min Rain = 0
KCL2 051348Z 28008KT 10/M01 A2998 RMK A01 T00981005  RH  048%=      5-min Rain = 0
KCL2 051349Z 29010KT 10/M01 A2998 RMK A01 T00981005  RH  049%=      5-min Rain = 0
KCL2 051350Z 29010KT 10/M01 A2997 RMK A01 T00991005  RH  048%=      5-min Rain = 0
KCL2 051351Z 29011KT 10/M01 A2997 RMK A01 T00991005  RH  049%=      5-min Rain = 0
KCL2 051352Z 29012KT 10/M00 A2997 RMK A01 T00991004  RH  048%=      5-min Rain = 0
KCL2 051353Z 29010KT 10/M00 A2997 RMK A01 T01001004  RH  048%=      5-min Rain = 0
KCL2 051354Z 29011KT 10/M00 A2998 RMK A01 T01001003  RH  049%=      5-min Rain = 0
KCL2 051355Z 29012KT 10/M00 A2998 RMK A01 T01001004  RH  048%=      5-min Rain = 0
KCL2 051356Z 29013KT 10/M00 A2998 RMK A01 T01011004  RH  048%=      5-min Rain = 0
KCL2 051357Z 29010KT 10/M00 A2998 RMK A01 T01011003  RH  048%=      5-min Rain = 0
KCL2 051358Z 29010KT 10/M00 A2998 RMK A01 T01011002  RH  049%=      5-min Rain = 0
KCL2 051359Z 29009KT 10/M00 A2998 RMK A01 T01021001  RH  049%=      5-min Rain = 0
KCL2 051400Z 29010KT 10/00 A2998 RMK A01 T010300-0  RH  049%=      5-min Rain = 0
KCL2 051401Z 29011KT 10/M00 A2998 RMK A01 T01031001  RH  049%=      5-min Rain = 0
KCL2 051402Z 29011KT 10/00 A2998 RMK A01 T010300-0  RH  049%=      5-min Rain = 0
KCL2 051403Z 29014KT 10/00 A2998 RMK A01 T01030000  RH  049%=      5-min Rain = 0
KCL2 051404Z 29013KT 10/00 A2998 RMK A01 T01030000  RH  049%=      5-min Rain = 0
KCL2 051405Z 29014KT 10/00 A2998 RMK A01 T01030001  RH  049%=      5-min Rain = 0
KCL2 051406Z 29012KT 10/00 A2998 RMK A01 T01030001  RH  049%=      5-min Rain = 0
KCL2 051407Z 29012KT 10/00 A2998 RMK A01 T01040002  RH  049%=      5-min Rain = 0
KCL2 051408Z 28011KT 10/00 A2998 RMK A01 T01040002  RH  049%=      5-min Rain = 0
KCL2 051409Z 28014KT 11/00 A2998 RMK A01 T01050003  RH  049%=      5-min Rain = 0
KCL2 051410Z 29013KT 11/00 A2998 RMK A01 T01050003  RH  049%=      5-min Rain = 0
KCL2 051411Z 29013KT 11/00 A2998 RMK A01 T01050004  RH  049%=      5-min Rain = 0
KCL2 051412Z 29015KT 11/00 A2998 RMK A01 T01060004  RH  049%=      5-min Rain = 0
KCL2 051413Z 29014KT 11/01 A2998 RMK A01 T01060005  RH  049%=      5-min Rain = 0
KCL2 051414Z 28013KT 11/01 A2998 RMK A01 T01060006  RH  050%=      5-min Rain = 0
KCL2 051415Z 29014G20KT 11/01 A2998 RMK A01 T01070006  RH  050%=      5-min Rain = 0
KCL2 051416Z 29014KT 11/01 A2998 RMK A01 T01070007  RH  050%=      5-min Rain = 0
KCL2 051417Z 29015KT 11/01 A2998 RMK A01 T01070007  RH  050%=      5-min Rain = 0
KCL2 051418Z 30012KT 11/01 A2998 RMK A01 T01080007  RH  050%=      5-min Rain = 0
KCL2 051419Z 29014KT 11/01 A2998 RMK A01 T01080008  RH  050%=      5-min Rain = 0
KCL2 051420Z 29014KT 11/01 A2998 RMK A01 T01090008  RH  050%=      5-min Rain = 0
KCL2 051421Z 29016KT 11/01 A2998 RMK A01 T01080008  RH  050%=      5-min Rain = 0
KCL2 051422Z 29013KT 11/01 A2998 RMK A01 T01080008  RH  050%=      5-min Rain = 0
KCL2 051423Z 29013G19KT 11/01 A2998 RMK A01 T01090010  RH  050%=      5-min Rain = 0
KCL2 051424Z 30014KT 11/01 A2999 RMK A01 T01100010  RH  050%=      5-min Rain = 0
KCL2 051425Z 30014KT 11/01 A2999 RMK A01 T01100010  RH  050%=      5-min Rain = 0
KCL2 051426Z 29014KT 11/01 A2999 RMK A01 T01100011  RH  050%=      5-min Rain = 0
KCL2 051427Z 30013G18KT 11/01 A2999 RMK A01 T01110011  RH  050%=      5-min Rain = 0
KCL2 051428Z 30013KT 11/01 A2999 RMK A01 T01120012  RH  050%=      5-min Rain = 0
KCL2 051429Z 30014KT 11/01 A2999 RMK A01 T01120012  RH  050%=      5-min Rain = 0
KCL2 051430Z 30015KT 11/01 A2999 RMK A01 T01130012  RH  050%=      5-min Rain = 0
KCL2 051431Z 30012KT 11/01 A2999 RMK A01 T01130013  RH  050%=      5-min Rain = 0
KCL2 051432Z 30014KT 11/01 A2999 RMK A01 T01140013  RH  050%=      5-min Rain = 0
KCL2 051433Z 30014KT 11/01 A2999 RMK A01 T01140013  RH  050%=      5-min Rain = 0
KCL2 051434Z 30013KT 11/01 A30 RMK A01 T01140014  RH  050%=      5-min Rain = 0
KCL2 051435Z 30013G19KT 12/01 A2999 RMK A01 T01150014  RH  050%=      5-min Rain = 0
KCL2 051436Z 30011KT 12/01 A2999 RMK A01 T01160013  RH  049%=      5-min Rain = 0
KCL2 051437Z 30011KT 12/01 A30 RMK A01 T01160014  RH  050%=      5-min Rain = 0
KCL2 051438Z 30014KT 12/02 A30 RMK A01 T01180015  RH  049%=      5-min Rain = 0
KCL2 051439Z 30012KT 12/01 A30 RMK A01 T01180014  RH  049%=      5-min Rain = 0
KCL2 051440Z 30016KT 12/01 A30 RMK A01 T01180014  RH  049%=      5-min Rain = 0
KCL2 051441Z 30015KT 12/01 A30 RMK A01 T01180013  RH  049%=      5-min Rain = 0
KCL2 051442Z 30015KT 12/01 A30 RMK A01 T01180013  RH  049%=      5-min Rain = 0
KCL2 051443Z 30015KT 12/01 A30 RMK A01 T01170014  RH  049%=      5-min Rain = 0
KCL2 051444Z 31016KT 12/02 A30 RMK A01 T01190015  RH  049%=      5-min Rain = 0
KCL2 051445Z 30015KT 12/02 A30 RMK A01 T01200015  RH  049%=      5-min Rain = 0
KCL2 051446Z 30018KT 12/02 A30 RMK A01 T01200015  RH  048%=      5-min Rain = 0
KCL2 051447Z 30016KT 12/01 A30 RMK A01 T01180013  RH  048%=      5-min Rain = 0
KCL2 051448Z 30011KT 12/02 A30 RMK A01 T01180015  RH  049%=      5-min Rain = 0
KCL2 051449Z 30013G18KT 12/02 A30 RMK A01 T01210018  RH  049%=      5-min Rain = 0
KCL2 051450Z 31016G21KT 12/02 A30 RMK A01 T01220015  RH  048%=      5-min Rain = 0
KCL2 051451Z 30015KT 12/02 A30 RMK A01 T01210015  RH  048%=      5-min Rain = 0
KCL2 051452Z 31013KT 12/02 A30 RMK A01 T01210016  RH  049%=      5-min Rain = 0
KCL2 051453Z 30016KT 12/02 A30 RMK A01 T01230016  RH  048%=      5-min Rain = 0
KCL2 051454Z 30015KT 12/02 A3001 RMK A01 T01220016  RH  048%=      5-min Rain = 0
KCL2 051455Z 31015G20KT 12/02 A3001 RMK A01 T01230016  RH  048%=      5-min Rain = 0
KCL2 051456Z 30019KT 12/02 A3001 RMK A01 T01230016  RH  048%=      5-min Rain = 0
KCL2 051457Z 30020KT 12/02 A30 RMK A01 T01220016  RH  048%=      5-min Rain = 0
KCL2 051458Z 30019KT 12/02 A3001 RMK A01 T01210015  RH  048%=      5-min Rain = 0
KCL2 051459Z 29020KT 12/02 A3001 RMK A01 T01190015  RH  049%=      5-min Rain = 0
KCL2 051500Z 31020KT 12/02 A3001 RMK A01 T01190016  RH  049%=      5-min Rain = 0
KCL2 051501Z 31017KT 12/02 A3001 RMK A01 T01190016  RH  049%=      5-min Rain = 0
KCL2 051502Z 30014KT 12/02 A3001 RMK A01 T01200017  RH  049%=      5-min Rain = 0
KCL2 051503Z 30016G22KT 12/02 A3001 RMK A01 T01230019  RH  049%=      5-min Rain = 0
KCL2 051504Z 31017KT 12/02 A3001 RMK A01 T01230018  RH  048%=      5-min Rain = 0
KCL2 051505Z 30019KT 12/02 A3001 RMK A01 T01230017  RH  048%=      5-min Rain = 0
KCL2 051506Z 30016G22KT 12/02 A3001 RMK A01 T01210017  RH  049%=      5-min Rain = 0
KCL2 051507Z 31017KT 12/02 A3001 RMK A01 T01210017  RH  049%=      5-min Rain = 0
KCL2 051508Z 30017KT 12/02 A3001 RMK A01 T01210017  RH  049%=      5-min Rain = 0
KCL2 051509Z 30015KT 12/02 A3001 RMK A01 T01190017  RH  050%=      5-min Rain = 0
KCL2 051510Z 31017KT 12/02 A3001 RMK A01 T01210020  RH  050%=      5-min Rain = 0
KCL2 051511Z 30016KT 12/02 A3001 RMK A01 T01220020  RH  050%=      5-min Rain = 0
KCL2 051512Z 30020KT 12/02 A3001 RMK A01 T01220020  RH  049%=      5-min Rain = 0
KCL2 051513Z 30019KT 12/02 A3001 RMK A01 T01220020  RH  050%=      5-min Rain = 0
KCL2 051514Z 31016KT 12/02 A3001 RMK A01 T01210020  RH  050%=      5-min Rain = 0
KCL2 051515Z 31014KT 12/02 A3001 RMK A01 T01230023  RH  050%=      5-min Rain = 0
KCL2 051516Z 31014KT 13/02 A3001 RMK A01 T01260024  RH  050%=      5-min Rain = 0
KCL2 051517Z 31016G21KT 13/02 A3001 RMK A01 T01280024  RH  049%=      5-min Rain = 0
KCL2 051518Z 31017KT 13/02 A3001 RMK A01 T01270022  RH  049%=      5-min Rain = 0
KCL2 051519Z 30018KT 13/02 A3001 RMK A01 T01260023  RH  049%=      5-min Rain = 0
KCL2 051520Z 30016KT 13/02 A3001 RMK A01 T01250023  RH  050%=      5-min Rain = 0
KCL2 051521Z 30018KT 13/02 A3001 RMK A01 T01250024  RH  050%=      5-min Rain = 0
KCL2 051522Z 31015KT 13/02 A3001 RMK A01 T01260024  RH  050%=      5-min Rain = 0
KCL2 051523Z 30014KT 13/02 A3001 RMK A01 T01270024  RH  050%=      5-min Rain = 0
KCL2 051524Z 31015G21KT 13/03 A3001 RMK A01 T01280026  RH  050%=      5-min Rain = 0
KCL2 051525Z 31020KT 13/03 A3002 RMK A01 T01290026  RH  049%=      5-min Rain = 0
KCL2 051526Z 32019KT 13/03 A3002 RMK A01 T01290025  RH  049%=      5-min Rain = 0
KCL2 051527Z 30018KT 13/03 A3002 RMK A01 T01280025  RH  050%=      5-min Rain = 0
KCL2 051528Z 30019KT 13/03 A3002 RMK A01 T01270025  RH  050%=      5-min Rain = 0
KCL2 051529Z 31018KT 13/03 A3002 RMK A01 T01270025  RH  050%=      5-min Rain = 0
KCL2 051530Z 31018KT 13/03 A3002 RMK A01 T01270026  RH  050%=      5-min Rain = 0
KCL2 051531Z 31019KT 13/03 A3002 RMK A01 T01280026  RH  050%=      5-min Rain = 0
KCL2 051532Z 30018KT 13/03 A3001 RMK A01 T01280026  RH  050%=      5-min Rain = 0
KCL2 051533Z 32015KT 13/03 A3001 RMK A01 T01270026  RH  050%=      5-min Rain = 0
KCL2 051534Z 32014KT 13/03 A3002 RMK A01 T01290029  RH  051%=      5-min Rain = 0
KCL2 051535Z 32015KT 13/03 A3002 RMK A01 T01330032  RH  050%=      5-min Rain = 0
KCL2 051536Z 31017KT 14/03 A3002 RMK A01 T01370032  RH  049%=      5-min Rain = 0
KCL2 051537Z 30018KT 14/03 A3002 RMK A01 T01360030  RH  049%=      5-min Rain = 0
KCL2 051538Z 31016G21KT 13/03 A3002 RMK A01 T01340030  RH  049%=      5-min Rain = 0
KCL2 051539Z 31019KT 13/03 A3002 RMK A01 T01330030  RH  049%=      5-min Rain = 0
KCL2 051540Z 31017KT 13/03 A3002 RMK A01 T01320030  RH  050%=      5-min Rain = 0
KCL2 051541Z 33015G22KT 13/03 A3002 RMK A01 T01340034  RH  050%=      5-min Rain = 0
KCL2 051542Z 32015KT 14/03 A3002 RMK A01 T01370033  RH  050%=      5-min Rain = 0
KCL2 051543Z 33013KT 14/04 A3002 RMK A01 T01370035  RH  050%=      5-min Rain = 0
KCL2 051544Z 33011KT 14/04 A3002 RMK A01 T01390035  RH  049%=      5-min Rain = 0
KCL2 051545Z 33015KT 14/04 A3002 RMK A01 T01400036  RH  049%=      5-min Rain = 0
KCL2 051546Z 33016KT 14/04 A3002 RMK A01 T01420036  RH  049%=      5-min Rain = 0
KCL2 051547Z 32018KT 14/03 A3002 RMK A01 T01390034  RH  049%=      5-min Rain = 0
KCL2 051548Z 32015KT 14/04 A3002 RMK A01 T01370035  RH  050%=      5-min Rain = 0
KCL2 051549Z 31015G20KT 14/04 A3002 RMK A01 T01380036  RH  050%=      5-min Rain = 0
KCL2 051550Z 33017G24KT 14/04 A3002 RMK A01 T01390036  RH  050%=      5-min Rain = 0
KCL2 051551Z 32017KT 14/04 A3002 RMK A01 T01400037  RH  050%=      5-min Rain = 0
KCL2 051552Z 32018G23KT 14/04 A3002 RMK A01 T01400036  RH  049%=      5-min Rain = 0
KCL2 051553Z 33016KT 14/04 A3002 RMK A01 T01390037  RH  050%=      5-min Rain = 0
KCL2 051554Z 32014KT 14/04 A3002 RMK A01 T01390038  RH  050%=      5-min Rain = 0
KCL2 051555Z 31014KT 14/04 A3002 RMK A01 T01410038  RH  050%=      5-min Rain = 0
KCL2 051556Z 31015KT 14/04 A3002 RMK A01 T01430038  RH  049%=      5-min Rain = 0
KCL2 051557Z 30016KT 14/04 A3002 RMK A01 T01430038  RH  049%=      5-min Rain = 0
KCL2 051558Z 31016KT 14/04 A3002 RMK A01 T01430038  RH  049%=      5-min Rain = 0
KCL2 051559Z 31019G24KT 14/04 A3002 RMK A01 T01420038  RH  050%=      5-min Rain = 0
KCL2 051600Z 31021G27KT 14/04 A3002 RMK A01 T01420038  RH  050%=      5-min Rain = 0
KCL2 051601Z 31020G25KT 14/04 A3003 RMK A01 T01400038  RH  050%=      5-min Rain = 0
KCL2 051602Z 31018KT 14/04 A3003 RMK A01 T01410038  RH  050%=      5-min Rain = 0
KCL2 051603Z 31019KT 14/04 A3002 RMK A01 T01410039  RH  050%=      5-min Rain = 0
KCL2 051604Z 31017KT 14/04 A3003 RMK A01 T01400039  RH  050%=      5-min Rain = 0
KCL2 051605Z 31016KT 14/04 A3002 RMK A01 T01430041  RH  050%=      5-min Rain = 0
KCL2 051606Z 32015KT 15/04 A3003 RMK A01 T01450041  RH  050%=      5-min Rain = 0
KCL2 051607Z 32014KT 15/04 A3003 RMK A01 T01480044  RH  050%=      5-min Rain = 0
KCL2 051608Z 33018KT 15/04 A3003 RMK A01 T01500042  RH  048%=      5-min Rain = 0
KCL2 051609Z 33016KT 15/04 A3002 RMK A01 T01460038  RH  048%=      5-min Rain = 0
KCL2 051610Z 32018G24KT 15/04 A3003 RMK A01 T01450040  RH  049%=      5-min Rain = 0
KCL2 051611Z 33017KT 15/04 A3003 RMK A01 T01450040  RH  049%=      5-min Rain = 0
KCL2 051612Z 33018KT 15/04 A3003 RMK A01 T01450040  RH  050%=      5-min Rain = 0
KCL2 051613Z 32020KT 15/04 A3003 RMK A01 T01450040  RH  049%=      5-min Rain = 0
KCL2 051614Z 32021KT 14/04 A3003 RMK A01 T01440039  RH  049%=      5-min Rain = 0
KCL2 051615Z 32017KT 14/04 A3002 RMK A01 T01420039  RH  050%=      5-min Rain = 0
KCL2 051616Z 32021KT 14/04 A3002 RMK A01 T01430040  RH  050%=      5-min Rain = 0
KCL2 051617Z 32021KT 14/04 A3002 RMK A01 T01430039  RH  050%=      5-min Rain = 0
KCL2 051618Z 33020KT 14/04 A3002 RMK A01 T01420039  RH  050%=      5-min Rain = 0
KCL2 051619Z 32020KT 14/04 A3002 RMK A01 T01420039  RH  050%=      5-min Rain = 0
KCL2 051620Z 32021KT 14/04 A3002 RMK A01 T01420040  RH  050%=      5-min Rain = 0
KCL2 051621Z 32021KT 14/04 A3002 RMK A01 T01410039  RH  050%=      5-min Rain = 0
KCL2 051622Z 32018KT 14/04 A3002 RMK A01 T01420040  RH  050%=      5-min Rain = 0
KCL2 051623Z 32018KT 14/04 A3002 RMK A01 T01430040  RH  050%=      5-min Rain = 0
KCL2 051624Z 33019KT 14/04 A3002 RMK A01 T01440040  RH  050%=      5-min Rain = 0
KCL2 051625Z 33019KT 14/04 A3003 RMK A01 T01440041  RH  050%=      5-min Rain = 0
KCL2 051626Z 33019KT 14/04 A3003 RMK A01 T01440040  RH  050%=      5-min Rain = 0
KCL2 051627Z 33018KT 14/04 A3002 RMK A01 T01440040  RH  050%=      5-min Rain = 0
KCL2 051628Z 32017G22KT 15/04 A3002 RMK A01 T01450042  RH  050%=      5-min Rain = 0
KCL2 051629Z 32019G24KT 15/04 A3003 RMK A01 T01470041  RH  049%=      5-min Rain = 0
KCL2 051630Z 32020KT 15/04 A3003 RMK A01 T01470043  RH  049%=      5-min Rain = 0
KCL2 051631Z 32020G25KT 15/04 A3003 RMK A01 T01480042  RH  049%=      5-min Rain = 0
KCL2 051632Z 32019G24KT 15/04 A3003 RMK A01 T01480042  RH  049%=      5-min Rain = 0
KCL2 051633Z 32016KT 15/04 A3003 RMK A01 T01490042  RH  049%=      5-min Rain = 0
KCL2 051634Z 33019G25KT 15/04 A3003 RMK A01 T01480042  RH  049%=      5-min Rain = 0
KCL2 051635Z 32019G25KT 15/04 A3003 RMK A01 T01480042  RH  049%=      5-min Rain = 0
KCL2 051636Z 33017KT 15/04 A3003 RMK A01 T01470042  RH  049%=      5-min Rain = 0
KCL2 051637Z 34014KT 15/05 A3003 RMK A01 T01480045  RH  050%=      5-min Rain = 0
KCL2 051638Z 33019KT 15/05 A3003 RMK A01 T01520046  RH  049%=      5-min Rain = 0
KCL2 051639Z 33017KT 15/04 A3003 RMK A01 T01510043  RH  048%=      5-min Rain = 0
KCL2 051640Z 34018KT 15/05 A3003 RMK A01 T01520046  RH  049%=      5-min Rain = 0
KCL2 051641Z 34016KT 15/05 A3003 RMK A01 T01520046  RH  049%=      5-min Rain = 0
KCL2 051642Z 33015KT 15/05 A3003 RMK A01 T01530047  RH  049%=      5-min Rain = 0
KCL2 051643Z 32020G25KT 15/05 A3003 RMK A01 T01540047  RH  049%=      5-min Rain = 0
KCL2 051644Z 32019G25KT 15/05 A3003 RMK A01 T01540046  RH  049%=      5-min Rain = 0
KCL2 051645Z 32018G24KT 15/05 A3003 RMK A01 T01540046  RH  049%=      5-min Rain = 0
KCL2 051646Z 34020G25KT 15/05 A3003 RMK A01 T01530047  RH  049%=      5-min Rain = 0
KCL2 051647Z 34020G26KT 15/05 A3003 RMK A01 T01510046  RH  050%=      5-min Rain = 0
KCL2 051648Z 32019KT 15/05 A3003 RMK A01 T01510049  RH  050%=      5-min Rain = 0
KCL2 051649Z 32018KT 15/05 A3004 RMK A01 T01540049  RH  050%=      5-min Rain = 0
KCL2 051650Z 32017G23KT 16/05 A3004 RMK A01 T01580052  RH  049%=      5-min Rain = 0
KCL2 051651Z 32019G24KT 16/05 A3004 RMK A01 T01590049  RH  048%=      5-min Rain = 0
KCL2 051652Z 32019G24KT 16/05 A3003 RMK A01 T01570049  RH  049%=      5-min Rain = 0
KCL2 051653Z 31017G23KT 16/05 A3003 RMK A01 T01550050  RH  049%=      5-min Rain = 0
KCL2 051654Z 32018KT 16/05 A3003 RMK A01 T01560050  RH  049%=      5-min Rain = 0
KCL2 051655Z 33018G23KT 16/05 A3004 RMK A01 T01590053  RH  049%=      5-min Rain = 0
KCL2 051656Z 33021KT 16/05 A3004 RMK A01 T01610052  RH  049%=      5-min Rain = 0
KCL2 051657Z 33021KT 16/05 A3004 RMK A01 T01590050  RH  048%=      5-min Rain = 0
KCL2 051658Z 32022KT 16/05 A3004 RMK A01 T01580051  RH  049%=      5-min Rain = 0
KCL2 051659Z 33018KT 16/05 A3004 RMK A01 T01580051  RH  049%=      5-min Rain = 0
KCL2 051700Z 33021KT 16/05 A3004 RMK A01 T01570050  RH  049%=      5-min Rain = 0
KCL2 051701Z 32021G26KT 16/05 A3003 RMK A01 T01560050  RH  049%=      5-min Rain = 0
KCL2 051702Z 32020KT 16/05 A3003 RMK A01 T01560051  RH  050%=      5-min Rain = 0
KCL2 051703Z 32019KT 16/05 A3003 RMK A01 T01580052  RH  049%=      5-min Rain = 0
KCL2 051704Z 31020G25KT 16/05 A3003 RMK A01 T01600053  RH  049%=      5-min Rain = 0
KCL2 051705Z 33020KT 16/05 A3003 RMK A01 T01600052  RH  048%=      5-min Rain = 0
KCL2 051706Z 33019KT 16/05 A3003 RMK A01 T01580051  RH  049%=      5-min Rain = 0
KCL2 051707Z 33017KT 16/05 A3004 RMK A01 T01590053  RH  049%=      5-min Rain = 0
KCL2 051708Z 34021G26KT 16/05 A3004 RMK A01 T01610053  RH  049%=      5-min Rain = 0
KCL2 051709Z 32021KT 16/05 A3004 RMK A01 T01620052  RH  048%=      5-min Rain = 0
KCL2 051710Z 33019KT 16/05 A3004 RMK A01 T01600051  RH  048%=      5-min Rain = 0
KCL2 051711Z 33021KT 16/05 A3004 RMK A01 T01600052  RH  049%=      5-min Rain = 0
KCL2 051712Z 33018G24KT 16/05 A3004 RMK A01 T01590053  RH  049%=      5-min Rain = 0
KCL2 051713Z 32018KT 16/06 A3004 RMK A01 T01620055  RH  049%=      5-min Rain = 0
KCL2 051714Z 33016KT 16/06 A3004 RMK A01 T01630055  RH  049%=      5-min Rain = 0
KCL2 051715Z 35017KT 17/06 A3004 RMK A01 T01650056  RH  048%=      5-min Rain = 0
KCL2 051716Z 35018KT 17/05 A3003 RMK A01 T01650053  RH  048%=      5-min Rain = 0
KCL2 051717Z 34017G22KT 16/05 A3004 RMK A01 T01630054  RH  049%=      5-min Rain = 0
KCL2 051718Z 33019KT 17/06 A3004 RMK A01 T01650055  RH  048%=      5-min Rain = 0
KCL2 051719Z 32017G22KT 17/05 A3004 RMK A01 T01650054  RH  048%=      5-min Rain = 0
KCL2 051720Z 32015G21KT 17/06 A3004 RMK A01 T01670055  RH  047%=      5-min Rain = 0
KCL2 051721Z 33020KT 17/06 A3004 RMK A01 T01680055  RH  047%=      5-min Rain = 0
KCL2 051722Z 34021G28KT 17/05 A3004 RMK A01 T01680053  RH  047%=      5-min Rain = 0
KCL2 051723Z 33022KT 17/05 A3004 RMK A01 T01650053  RH  048%=      5-min Rain = 0
KCL2 051724Z 33018G26KT 17/05 A3004 RMK A01 T01650054  RH  048%=      5-min Rain = 0
KCL2 051725Z 33018G25KT 17/05 A3004 RMK A01 T01650053  RH  047%=      5-min Rain = 0
KCL2 051726Z 32017KT 17/06 A3004 RMK A01 T01660055  RH  048%=      5-min Rain = 0
KCL2 051727Z 33017G22KT 17/06 A3004 RMK A01 T01670055  RH  048%=      5-min Rain = 0
KCL2 051728Z 32020G25KT 17/06 A3004 RMK A01 T01680056  RH  048%=      5-min Rain = 0
KCL2 051729Z 33022KT 17/06 A3004 RMK A01 T01690055  RH  047%=      5-min Rain = 0
KCL2 051730Z 32018G23KT 17/05 A3004 RMK A01 T01690054  RH  047%=      5-min Rain = 0
KCL2 051731Z 32020G28KT 17/06 A3004 RMK A01 T01690055  RH  047%=      5-min Rain = 0
KCL2 051732Z 33022G28KT 17/05 A3004 RMK A01 T01680053  RH  046%=      5-min Rain = 0
KCL2 051733Z 33022G27KT 17/05 A3004 RMK A01 T01660053  RH  047%=      5-min Rain = 0
KCL2 051734Z 33023KT 17/05 A3004 RMK A01 T01660053  RH  047%=      5-min Rain = 0
KCL2 051735Z 34018G23KT 17/05 A3005 RMK A01 T01650053  RH  047%=      5-min Rain = 0
KCL2 051736Z 34024G30KT 17/05 A3005 RMK A01 T01660052  RH  047%=      5-min Rain = 0
KCL2 051737Z 34022G28KT 16/05 A3005 RMK A01 T01630048  RH  047%=      5-min Rain = 0
KCL2 051738Z 35020KT 16/05 A3005 RMK A01 T01600050  RH  048%=      5-min Rain = 0
KCL2 051739Z 34019G24KT 16/05 A3005 RMK A01 T01600050  RH  048%=      5-min Rain = 0
KCL2 051740Z 34019G24KT 16/05 A3005 RMK A01 T01620054  RH  049%=      5-min Rain = 0
KCL2 051741Z 35019G25KT 17/05 A3005 RMK A01 T01650052  RH  047%=      5-min Rain = 0
KCL2 051742Z 35021G28KT 17/05 A3005 RMK A01 T01660052  RH  047%=      5-min Rain = 0
KCL2 051743Z 35018KT 17/05 A3005 RMK A01 T01650051  RH  047%=      5-min Rain = 0
KCL2 051744Z 35023G28KT 16/05 A3005 RMK A01 T01640051  RH  047%=      5-min Rain = 0
KCL2 051745Z 34020KT 16/05 A3005 RMK A01 T01630049  RH  047%=      5-min Rain = 0
KCL2 051746Z 35020KT 16/05 A3005 RMK A01 T01610050  RH  048%=      5-min Rain = 0
KCL2 051747Z 35021KT 16/05 A3005 RMK A01 T01630051  RH  048%=      5-min Rain = 0
KCL2 051748Z 35020G25KT 16/05 A3005 RMK A01 T01620051  RH  047%=      5-min Rain = 0
KCL2 051749Z 35019KT 16/05 A3005 RMK A01 T01620052  RH  048%=      5-min Rain = 0
KCL2 051750Z 36019KT 16/05 A3005 RMK A01 T01630052  RH  048%=      5-min Rain = 0
KCL2 051751Z 35021KT 16/05 A3006 RMK A01 T01630051  RH  047%=      5-min Rain = 0
KCL2 051752Z 34022G27KT 16/05 A3006 RMK A01 T01620050  RH  048%=      5-min Rain = 0
KCL2 051753Z 34021G27KT 16/05 A3006 RMK A01 T01600049  RH  048%=      5-min Rain = 0
KCL2 051754Z 34020KT 16/05 A3005 RMK A01 T01590050  RH  048%=      5-min Rain = 0
KCL2 051755Z 34021G26KT 16/05 A3005 RMK A01 T01600050  RH  048%=      5-min Rain = 0
KCL2 051756Z 33021KT 16/05 A3005 RMK A01 T01610050  RH  048%=      5-min Rain = 0
KCL2 051757Z 33022G28KT 16/05 A3005 RMK A01 T01630053  RH  048%=      5-min Rain = 0
KCL2 051758Z 33024G30KT 17/05 A3005 RMK A01 T01660051  RH  047%=      5-min Rain = 0
KCL2 051759Z 34020G26KT 17/05 A3006 RMK A01 T01660052  RH  047%=      5-min Rain = 0
KCL2 051800Z 34018KT 17/05 A3006 RMK A01 T01670053  RH  047%=      5-min Rain = 0
KCL2 051801Z 35021KT 17/05 A3006 RMK A01 T01690052  RH  046%=      5-min Rain = 0
KCL2 051802Z 35017KT 17/05 A3006 RMK A01 T01650051  RH  047%=      5-min Rain = 0
KCL2 051803Z 34017KT 17/05 A3006 RMK A01 T01670054  RH  047%=      5-min Rain = 0
KCL2 051804Z 33022G27KT 17/05 A3006 RMK A01 T01680053  RH  047%=      5-min Rain = 0
KCL2 051805Z 33025G30KT 17/05 A3005 RMK A01 T01680052  RH  046%=      5-min Rain = 0
KCL2 051806Z 33024G29KT 17/05 A3005 RMK A01 T01670052  RH  046%=      5-min Rain = 0
KCL2 051807Z 34017G24KT 17/05 A3006 RMK A01 T01670052  RH  047%=      5-min Rain = 0
KCL2 051808Z 35016KT 17/06 A3006 RMK A01 T01700056  RH  047%=      5-min Rain = 0
KCL2 051809Z 34018G24KT 17/06 A3006 RMK A01 T01720055  RH  046%=      5-min Rain = 0
KCL2 051810Z 34022G28KT 17/05 A3006 RMK A01 T01720054  RH  046%=      5-min Rain = 0
KCL2 051811Z 33023G28KT 17/05 A3006 RMK A01 T01690051  RH  046%=      5-min Rain = 0
KCL2 051812Z 33022G31KT 17/05 A3006 RMK A01 T01670052  RH  047%=      5-min Rain = 0
KCL2 051813Z 34023KT 17/05 A3006 RMK A01 T01680052  RH  046%=      5-min Rain = 0
KCL2 051814Z 36020G26KT 17/05 A3006 RMK A01 T01670052  RH  047%=      5-min Rain = 0
KCL2 051815Z 01020G25KT 17/05 A3006 RMK A01 T01650052  RH  047%=      5-min Rain = 0
KCL2 051816Z 35017KT 17/06 A3006 RMK A01 T01660055  RH  048%=      5-min Rain = 0
KCL2 051817Z 34021G28KT 17/06 A3006 RMK A01 T01700055  RH  047%=      5-min Rain = 0
KCL2 051818Z 35022KT 17/05 A3006 RMK A01 T01680052  RH  046%=      5-min Rain = 0
KCL2 051819Z 35023KT 17/05 A3006 RMK A01 T01670054  RH  047%=      5-min Rain = 0
KCL2 051820Z 35021G27KT 17/05 A3006 RMK A01 T01660054  RH  047%=      5-min Rain = 0
KCL2 051821Z 33022G29KT 17/05 A3006 RMK A01 T01660053  RH  047%=      5-min Rain = 0
KCL2 051822Z 34023KT 17/05 A3006 RMK A01 T01650052  RH  047%=      5-min Rain = 0
KCL2 051823Z 33021KT 16/05 A3006 RMK A01 T01630053  RH  048%=      5-min Rain = 0
KCL2 051824Z 34020G26KT 17/06 A3006 RMK A01 T01650056  RH  048%=      5-min Rain = 0
KCL2 051825Z 35024KT 17/06 A3006 RMK A01 T01690055  RH  047%=      5-min Rain = 0
KCL2 051826Z 36019KT 17/06 A3006 RMK A01 T01660055  RH  048%=      5-min Rain = 0
KCL2 051827Z 36020KT 17/06 A3006 RMK A01 T01660055  RH  048%=      5-min Rain = 0
KCL2 051828Z 34019G24KT 17/06 A3006 RMK A01 T01670055  RH  048%=      5-min Rain = 0
KCL2 051829Z 34025KT 17/06 A3006 RMK A01 T01670055  RH  048%=      5-min Rain = 0
KCL2 051830Z 34025G30KT 17/05 A3006 RMK A01 T01660054  RH  047%=      5-min Rain = 0
KCL2 051831Z 34019KT 16/05 A3006 RMK A01 T01640054  RH  048%=      5-min Rain = 0
KCL2 051832Z 34023KT 17/06 A3006 RMK A01 T01650055  RH  048%=      5-min Rain = 0
KCL2 051833Z 34021G28KT 17/05 A3006 RMK A01 T01650054  RH  047%=      5-min Rain = 0
KCL2 051834Z 35024KT 17/05 A3006 RMK A01 T01660054  RH  048%=      5-min Rain = 0
KCL2 051835Z 35021G27KT 17/05 A3007 RMK A01 T01660054  RH  048%=      5-min Rain = 0
KCL2 051836Z 35023KT 17/05 A3006 RMK A01 T01650054  RH  048%=      5-min Rain = 0
KCL2 051837Z 35020KT 17/06 A3006 RMK A01 T01650055  RH  048%=      5-min Rain = 0
KCL2 051838Z 35021G28KT 17/06 A3006 RMK A01 T01650056  RH  049%=      5-min Rain = 0
KCL2 051839Z 34022G27KT 17/06 A3006 RMK A01 T01660057  RH  049%=      5-min Rain = 0
KCL2 051840Z 35026G33KT 17/06 A3006 RMK A01 T01650056  RH  048%=      5-min Rain = 0
KCL2 051841Z 35023G29KT 16/05 A3006 RMK A01 T01610053  RH  049%=      5-min Rain = 0
KCL2 051842Z 36021G26KT 16/06 A3007 RMK A01 T01600055  RH  050%=      5-min Rain = 0
KCL2 051843Z 34017G27KT 16/06 A3006 RMK A01 T01640061  RH  051%=      5-min Rain = 0
KCL2 051844Z 34025G32KT 17/06 A3006 RMK A01 T01680058  RH  048%=      5-min Rain = 0
KCL2 051845Z 35023G28KT 17/06 A3006 RMK A01 T01660056  RH  048%=      5-min Rain = 0
KCL2 051846Z 35018G24KT 16/06 A3006 RMK A01 T01630055  RH  049%=      5-min Rain = 0
KCL2 051847Z 36022G27KT 16/06 A3007 RMK A01 T01630057  RH  049%=      5-min Rain = 0
KCL2 051848Z 35019KT 16/06 A3007 RMK A01 T01620056  RH  049%=      5-min Rain = 0
KCL2 051849Z 35019KT 16/06 A3007 RMK A01 T01620056  RH  050%=      5-min Rain = 0
KCL2 051850Z 34019G24KT 16/06 A3007 RMK A01 T01600056  RH  050%=      5-min Rain = 0
KCL2 051851Z 34021KT 16/06 A3007 RMK A01 T01600057  RH  050%=      5-min Rain = 0
KCL2 051852Z 34019G24KT 16/06 A3007 RMK A01 T01570056  RH  051%=      5-min Rain = 0
KCL2 051853Z 34020G25KT 16/06 A3007 RMK A01 T01560056  RH  051%=      5-min Rain = 0
KCL2 051854Z 34024G31KT 16/06 A3007 RMK A01 T01560057  RH  052%=      5-min Rain = 0
KCL2 051855Z 34023KT 16/06 A3007 RMK A01 T01560057  RH  052%=      5-min Rain = 0
KCL2 051856Z 35019G26KT 16/06 A3007 RMK A01 T01590059  RH  051%=      5-min Rain = 0
KCL2 051857Z 34020KT 16/06 A3007 RMK A01 T01630060  RH  050%=      5-min Rain = 0
KCL2 051858Z 35020G26KT 16/06 A3007 RMK A01 T01640059  RH  050%=      5-min Rain = 0
KCL2 051859Z 36022KT 17/06 A3007 RMK A01 T01660059  RH  049%=      5-min Rain = 0
KCL2 051900Z 34024G34KT 17/06 A3006 RMK A01 T01680059  RH  048%=      5-min Rain = 0
KCL2 051901Z 36024G31KT 17/06 A3007 RMK A01 T01670058  RH  048%=      5-min Rain = 0
KCL2 051902Z 34022KT 16/06 A3007 RMK A01 T01630056  RH  049%=      5-min Rain = 0
KCL2 051903Z 34020KT 16/06 A3007 RMK A01 T01610056  RH  050%=      5-min Rain = 0
KCL2 051904Z 34018KT 16/06 A3007 RMK A01 T01610058  RH  050%=      5-min Rain = 0
KCL2 051905Z 34022G27KT 16/06 A3007 RMK A01 T01620057  RH  050%=      5-min Rain = 0
KCL2 051906Z 33023KT 16/06 A3006 RMK A01 T01590055  RH  050%=      5-min Rain = 0
KCL2 051907Z 34023G28KT 16/06 A3006 RMK A01 T01560056  RH  051%=      5-min Rain = 0
KCL2 051908Z 34021G27KT 16/06 A3007 RMK A01 T01560058  RH  052%=      5-min Rain = 0
KCL2 051909Z 33025G32KT 16/06 A3006 RMK A01 T01600061  RH  052%=      5-min Rain = 0
KCL2 051910Z 34023KT 17/06 A3007 RMK A01 T01650061  RH  050%=      5-min Rain = 0
KCL2 051911Z 33022G28KT 16/06 A3007 RMK A01 T01640058  RH  050%=      5-min Rain = 0
KCL2 051912Z 34024G29KT 16/06 A3006 RMK A01 T01610057  RH  050%=      5-min Rain = 0
KCL2 051913Z 33025KT 16/06 A3006 RMK A01 T01580057  RH  051%=      5-min Rain = 0
KCL2 051914Z 34023G29KT 16/06 A3006 RMK A01 T01570056  RH  051%=      5-min Rain = 0
KCL2 051915Z 34022G28KT 16/06 A3007 RMK A01 T01590060  RH  052%=      5-min Rain = 0
KCL2 051916Z 33025KT 16/06 A3006 RMK A01 T01640060  RH  050%=      5-min Rain = 0
KCL2 051917Z 33022KT 16/06 A3007 RMK A01 T01610057  RH  050%=      5-min Rain = 0
KCL2 051918Z 34021G27KT 16/06 A3006 RMK A01 T01580056  RH  051%=      5-min Rain = 0
KCL2 051919Z 35024G29KT 16/06 A3006 RMK A01 T01560057  RH  052%=      5-min Rain = 0
KCL2 051920Z 35019KT 15/06 A3007 RMK A01 T01540058  RH  053%=      5-min Rain = 0
KCL2 051921Z 34019KT 16/06 A3007 RMK A01 T01570060  RH  053%=      5-min Rain = 0
KCL2 051922Z 34022G27KT 16/06 A3007 RMK A01 T01600061  RH  052%=      5-min Rain = 0
KCL2 051923Z 34020G26KT 16/06 A3007 RMK A01 T01610059  RH  051%=      5-min Rain = 0
KCL2 051924Z 34021KT 16/06 A3007 RMK A01 T01610059  RH  051%=      5-min Rain = 0
KCL2 051925Z 35023KT 16/06 A3007 RMK A01 T01600057  RH  051%=      5-min Rain = 0
KCL2 051926Z 35019KT 16/06 A3007 RMK A01 T01560056  RH  051%=      5-min Rain = 0
KCL2 051927Z 35021KT 15/06 A3007 RMK A01 T01540057  RH  052%=      5-min Rain = 0
KCL2 051928Z 35018KT 15/06 A3007 RMK A01 T01540057  RH  052%=      5-min Rain = 0
KCL2 051929Z 35022KT 15/06 A3007 RMK A01 T01540057  RH  052%=      5-min Rain = 0
KCL2 051930Z 35021KT 15/06 A3007 RMK A01 T01530056  RH  053%=      5-min Rain = 0
KCL2 051931Z 34018G24KT 15/06 A3007 RMK A01 T01510057  RH  053%=      5-min Rain = 0
KCL2 051932Z 34018G23KT 15/06 A3007 RMK A01 T01510057  RH  053%=      5-min Rain = 0
KCL2 051933Z 35024G30KT 15/06 A3007 RMK A01 T01520055  RH  052%=      5-min Rain = 0
KCL2 051934Z 34023KT 15/05 A3007 RMK A01 T01490053  RH  052%=      5-min Rain = 0
KCL2 051935Z 35022G28KT 15/05 A3007 RMK A01 T01490054  RH  053%=      5-min Rain = 0
KCL2 051936Z 35022G29KT 15/06 A3007 RMK A01 T01490055  RH  053%=      5-min Rain = 0
KCL2 051937Z 34022KT 15/06 A3007 RMK A01 T01480055  RH  054%=      5-min Rain = 0
KCL2 051938Z 35021KT 15/06 A3007 RMK A01 T01480055  RH  054%=      5-min Rain = 0
KCL2 051939Z 35019KT 15/06 A3007 RMK A01 T01480056  RH  054%=      5-min Rain = 0
KCL2 051940Z 36021KT 15/06 A3007 RMK A01 T01480056  RH  054%=      5-min Rain = 0
KCL2 051941Z 35019G24KT 15/06 A3007 RMK A01 T01490056  RH  054%=      5-min Rain = 0
KCL2 051942Z 35020G25KT 15/06 A3007 RMK A01 T01500058  RH  054%=      5-min Rain = 0
KCL2 051943Z 36022KT 15/06 A3007 RMK A01 T01520059  RH  054%=      5-min Rain = 0
KCL2 051944Z 35022KT 15/06 A3007 RMK A01 T01510056  RH  053%=      5-min Rain = 0
KCL2 051945Z 35020G26KT 15/06 A3007 RMK A01 T01490057  RH  054%=      5-min Rain = 0
KCL2 051946Z 35021KT 15/06 A3007 RMK A01 T01490056  RH  054%=      5-min Rain = 0
KCL2 051947Z 34021KT 15/06 A3007 RMK A01 T01480055  RH  054%=      5-min Rain = 0
KCL2 051948Z 35021KT 15/06 A3007 RMK A01 T01460055  RH  054%=      5-min Rain = 0
KCL2 051949Z 36018KT 15/06 A3007 RMK A01 T01450055  RH  055%=      5-min Rain = 0
KCL2 051950Z 35019KT 15/06 A3007 RMK A01 T01450055  RH  055%=      5-min Rain = 0
KCL2 051951Z 35019KT 15/06 A3007 RMK A01 T01450056  RH  055%=      5-min Rain = 0
KCL2 051952Z 34017G22KT 15/06 A3007 RMK A01 T01450056  RH  055%=      5-min Rain = 0
KCL2 051953Z 34021KT 15/06 A3007 RMK A01 T01450056  RH  055%=      5-min Rain = 0
KCL2 051954Z 34022KT 15/06 A3007 RMK A01 T01450055  RH  055%=      5-min Rain = 0
KCL2 051955Z 35019KT 14/06 A3007 RMK A01 T01440056  RH  055%=      5-min Rain = 0
KCL2 051956Z 01016KT 14/06 A3007 RMK A01 T01440057  RH  056%=      5-min Rain = 0
KCL2 051957Z 36014KT 15/06 A3007 RMK A01 T01450058  RH  056%=      5-min Rain = 0
KCL2 051958Z 36015KT 15/06 A3007 RMK A01 T01470058  RH  055%=      5-min Rain = 0
KCL2 051959Z 00017G25KT 15/06 A3007 RMK A01 T01480058  RH  055%=      5-min Rain = 0
KCL2 052000Z 00019KT 15/06 A3007 RMK A01 T01480058  RH  055%=      5-min Rain = 0
KCL2 052001Z 00019KT 15/06 A3007 RMK A01 T01470057  RH  055%=      5-min Rain = 0
KCL2 052002Z 00019KT 15/06 A3007 RMK A01 T01470058  RH  055%=      5-min Rain = 0
KCL2 052003Z 36017G23KT 15/06 A3007 RMK A01 T01460057  RH  055%=      5-min Rain = 0
KCL2 052004Z 36019KT 15/06 A3007 RMK A01 T01460057  RH  055%=      5-min Rain = 0
KCL2 052005Z 01017G23KT 15/06 A3007 RMK A01 T01460057  RH  055%=      5-min Rain = 0
KCL2 052006Z 36021KT 15/06 A3007 RMK A01 T01450057  RH  055%=      5-min Rain = 0
KCL2 052007Z 35019KT 14/06 A3007 RMK A01 T01440056  RH  056%=      5-min Rain = 0
KCL2 052008Z 36019KT 14/06 A3007 RMK A01 T01430057  RH  056%=      5-min Rain = 0
KCL2 052009Z 35017KT 14/06 A3007 RMK A01 T01430057  RH  056%=      5-min Rain = 0
KCL2 052010Z 35016KT 14/06 A3007 RMK A01 T01430057  RH  056%=      5-min Rain = 0
KCL2 052011Z 35015KT 14/06 A3007 RMK A01 T01440058  RH  056%=      5-min Rain = 0
KCL2 052012Z 34016G21KT 15/06 A3007 RMK A01 T01460058  RH  056%=      5-min Rain = 0
KCL2 052013Z 36015G21KT 15/06 A3007 RMK A01 T01470059  RH  056%=      5-min Rain = 0
KCL2 052014Z 35021KT 15/06 A3007 RMK A01 T01480059  RH  055%=      5-min Rain = 0
KCL2 052015Z 36019KT 15/06 A3007 RMK A01 T01480058  RH  055%=      5-min Rain = 0
KCL2 052016Z 35017G23KT 15/06 A3007 RMK A01 T01480058  RH  055%=      5-min Rain = 0
KCL2 052017Z 35020KT 15/06 A3007 RMK A01 T01490058  RH  055%=      5-min Rain = 0
KCL2 052018Z 35019KT 15/06 A3007 RMK A01 T01490058  RH  055%=      5-min Rain = 0
KCL2 052019Z 34019G24KT 15/06 A3007 RMK A01 T01500059  RH  054%=      5-min Rain = 0
KCL2 052020Z 34020KT 15/06 A3006 RMK A01 T01510058  RH  054%=      5-min Rain = 0
KCL2 052021Z 00022G27KT 15/06 A3007 RMK A01 T01520060  RH  054%=      5-min Rain = 0
KCL2 052022Z 36019KT 15/06 A3007 RMK A01 T01500058  RH  054%=      5-min Rain = 0
KCL2 052023Z 36024KT 15/06 A3007 RMK A01 T01480058  RH  055%=      5-min Rain = 0
KCL2 052024Z 00020KT 15/06 A3007 RMK A01 T01460058  RH  055%=      5-min Rain = 0
KCL2 052025Z 00021G27KT 15/06 A3007 RMK A01 T01460058  RH  056%=      5-min Rain = 0
KCL2 052026Z 36021KT 15/06 A3007 RMK A01 T01460057  RH  055%=      5-min Rain = 0
KCL2 052027Z 35022KT 15/06 A3007 RMK A01 T01460057  RH  055%=      5-min Rain = 0
KCL2 052028Z 36020G25KT 15/06 A3007 RMK A01 T01470055  RH  054%=      5-min Rain = 0
KCL2 052029Z 01020KT 15/05 A3007 RMK A01 T01470053  RH  053%=      5-min Rain = 0
KCL2 052030Z 35020G25KT 15/05 A3007 RMK A01 T01470052  RH  053%=      5-min Rain = 0
KCL2 052031Z 35017G22KT 15/05 A3007 RMK A01 T01470052  RH  053%=      5-min Rain = 0
KCL2 052032Z 35018G26KT 15/06 A3007 RMK A01 T01490055  RH  053%=      5-min Rain = 0
KCL2 052033Z 35019G27KT 15/06 A3007 RMK A01 T01540056  RH  052%=      5-min Rain = 0
KCL2 052034Z 35021G29KT 16/06 A3007 RMK A01 T01600059  RH  051%=      5-min Rain = 0
KCL2 052035Z 35024G29KT 16/05 A3007 RMK A01 T01610054  RH  049%=      5-min Rain = 0
KCL2 052036Z 35023KT 16/05 A3007 RMK A01 T01590052  RH  049%=      5-min Rain = 0
KCL2 052037Z 36023G28KT 16/05 A3007 RMK A01 T01570052  RH  050%=      5-min Rain = 0
KCL2 052038Z 34025KT 16/05 A3007 RMK A01 T01550052  RH  050%=      5-min Rain = 0
KCL2 052039Z 34024G29KT 15/05 A3007 RMK A01 T01530053  RH  051%=      5-min Rain = 0
KCL2 052040Z 35023G31KT 15/05 A3007 RMK A01 T01500054  RH  053%=      5-min Rain = 0
KCL2 052041Z 35019G25KT 15/06 A3008 RMK A01 T01500056  RH  053%=      5-min Rain = 0
KCL2 052042Z 00019G24KT 15/06 A3008 RMK A01 T01500056  RH  054%=      5-min Rain = 0
KCL2 052043Z 36018KT 15/06 A3008 RMK A01 T01490056  RH  054%=      5-min Rain = 0
KCL2 052044Z 36022G29KT 15/06 A3008 RMK A01 T01500056  RH  053%=      5-min Rain = 0
KCL2 052045Z 35021KT 15/06 A3008 RMK A01 T01470055  RH  054%=      5-min Rain = 0
KCL2 052046Z 35019G26KT 15/06 A3008 RMK A01 T01460056  RH  055%=      5-min Rain = 0
KCL2 052047Z 35023G29KT 15/06 A3008 RMK A01 T01450056  RH  055%=      5-min Rain = 0
KCL2 052048Z 36019KT 14/06 A3008 RMK A01 T01430056  RH  056%=      5-min Rain = 0
KCL2 052049Z 36017KT 14/06 A3008 RMK A01 T01430057  RH  056%=      5-min Rain = 0
KCL2 052050Z 00023G29KT 15/06 A3008 RMK A01 T01460059  RH  056%=      5-min Rain = 0
KCL2 052051Z 00026G31KT 15/06 A3008 RMK A01 T01470058  RH  055%=      5-min Rain = 0
KCL2 052052Z 00022G27KT 15/06 A3008 RMK A01 T01450057  RH  056%=      5-min Rain = 0
KCL2 052053Z 35021G27KT 14/06 A3008 RMK A01 T01420056  RH  056%=      5-min Rain = 0
KCL2 052054Z 36018KT 14/06 A3008 RMK A01 T01410058  RH  057%=      5-min Rain = 0
KCL2 052055Z 00015KT 14/06 A3008 RMK A01 T01420058  RH  057%=      5-min Rain = 0
KCL2 052056Z 36019G24KT 14/06 A3008 RMK A01 T01420058  RH  057%=      5-min Rain = 0
KCL2 052057Z 35023G29KT 14/06 A3008 RMK A01 T01430058  RH  057%=      5-min Rain = 0
KCL2 052058Z 35022G28KT 14/06 A3008 RMK A01 T01420057  RH  057%=      5-min Rain = 0
KCL2 052059Z 35024KT 14/06 A3009 RMK A01 T01410057  RH  057%=      5-min Rain = 0
KCL2 052100Z 34023G28KT 14/06 A3009 RMK A01 T01410057  RH  057%=      5-min Rain = 0
KCL2 052101Z 35022G28KT 14/06 A3009 RMK A01 T01400056  RH  057%=      5-min Rain = 0
KCL2 052102Z 36021G26KT 14/06 A3009 RMK A01 T01390056  RH  057%=      5-min Rain = 0
KCL2 052103Z 36022KT 14/06 A3009 RMK A01 T01390056  RH  057%=      5-min Rain = 0
KCL2 052104Z 36023KT 14/06 A3009 RMK A01 T01400056  RH  057%=      5-min Rain = 0
KCL2 052105Z 35022KT 14/06 A3009 RMK A01 T01390056  RH  057%=      5-min Rain = 0
KCL2 052106Z 35024G29KT 14/06 A3009 RMK A01 T01380055  RH  058%=      5-min Rain = 0
KCL2 052107Z 35024KT 14/06 A3009 RMK A01 T01370056  RH  058%=      5-min Rain = 0
KCL2 052108Z 35023KT 14/06 A3009 RMK A01 T01380056  RH  058%=      5-min Rain = 0
KCL2 052109Z 35020KT 14/06 A3009 RMK A01 T01390057  RH  058%=      5-min Rain = 0
KCL2 052110Z 35020G26KT 14/06 A3009 RMK A01 T01420058  RH  057%=      5-min Rain = 0
KCL2 052111Z 36021G27KT 15/06 A3009 RMK A01 T01460059  RH  056%=      5-min Rain = 0
KCL2 052112Z 36022G28KT 15/06 A3009 RMK A01 T01480057  RH  054%=      5-min Rain = 0
KCL2 052113Z 00022KT 15/06 A3009 RMK A01 T01470055  RH  054%=      5-min Rain = 0
KCL2 052114Z 36020KT 15/06 A3009 RMK A01 T01480056  RH  054%=      5-min Rain = 0
KCL2 052115Z 35019KT 15/06 A3009 RMK A01 T01520059  RH  054%=      5-min Rain = 0
KCL2 052116Z 34021G26KT 16/06 A3009 RMK A01 T01570058  RH  052%=      5-min Rain = 0
KCL2 052117Z 34021KT 16/06 A3009 RMK A01 T01560056  RH  051%=      5-min Rain = 0
KCL2 052118Z 35022KT 16/06 A3009 RMK A01 T01550056  RH  051%=      5-min Rain = 0
KCL2 052119Z 35019KT 15/05 A3009 RMK A01 T01510053  RH  052%=      5-min Rain = 0
KCL2 052120Z 00020KT 15/05 A301 RMK A01 T01470052  RH  053%=      5-min Rain = 0
KCL2 052121Z 35020G27KT 14/05 A301 RMK A01 T01440051  RH  054%=      5-min Rain = 0
KCL2 052122Z 00020KT 14/05 A301 RMK A01 T01400050  RH  055%=      5-min Rain = 0
KCL2 052123Z 36019G26KT 14/05 A301 RMK A01 T01390050  RH  055%=      5-min Rain = 0
KCL2 052124Z 35020KT 14/05 A301 RMK A01 T01370048  RH  055%=      5-min Rain = 0
KCL2 052125Z 35018KT 14/05 A301 RMK A01 T01370049  RH  055%=      5-min Rain = 0
KCL2 052126Z 36021KT 14/05 A301 RMK A01 T01370049  RH  055%=      5-min Rain = 0
KCL2 052127Z 00022G29KT 14/05 A301 RMK A01 T01360048  RH  055%=      5-min Rain = 0
KCL2 052128Z 36019G26KT 14/05 A301 RMK A01 T01350049  RH  056%=      5-min Rain = 0
KCL2 052129Z 35023G29KT 14/05 A301 RMK A01 T01360049  RH  055%=      5-min Rain = 0
KCL2 052130Z 35026KT 14/05 A301 RMK A01 T01370049  RH  055%=      5-min Rain = 0
KCL2 052131Z 35023G29KT 14/05 A301 RMK A01 T01410053  RH  055%=      5-min Rain = 0
KCL2 052132Z 00017KT 15/06 A3011 RMK A01 T01460056  RH  054%=      5-min Rain = 0
KCL2 052133Z 01021G30KT 15/05 A3011 RMK A01 T01460052  RH  053%=      5-min Rain = 0
KCL2 052134Z 35024KT 14/05 A3011 RMK A01 T01410050  RH  054%=      5-min Rain = 0
KCL2 052135Z 35023G29KT 14/05 A3011 RMK A01 T01380049  RH  055%=      5-min Rain = 0
KCL2 052136Z 35020G25KT 14/05 A3011 RMK A01 T01370050  RH  056%=      5-min Rain = 0
KCL2 052137Z 36024G30KT 14/05 A3011 RMK A01 T01370049  RH  055%=      5-min Rain = 0
KCL2 052138Z 35023G30KT 14/05 A3011 RMK A01 T01360048  RH  055%=      5-min Rain = 0
KCL2 052139Z 35019G26KT 13/05 A3011 RMK A01 T01340049  RH  056%=      5-min Rain = 0
KCL2 052140Z 36019KT 13/05 A3011 RMK A01 T01340050  RH  056%=      5-min Rain = 0
KCL2 052141Z 35019G26KT 13/05 A3012 RMK A01 T01340050  RH  057%=      5-min Rain = 0
KCL2 052142Z 35022KT 13/05 A3011 RMK A01 T01330049  RH  057%=      5-min Rain = 0
KCL2 052143Z 00021KT 13/05 A3011 RMK A01 T01310049  RH  057%=      5-min Rain = 0
KCL2 052144Z 36020KT 13/05 A3012 RMK A01 T01300049  RH  058%=      5-min Rain = 0
KCL2 052145Z 35017G23KT 13/05 A3012 RMK A01 T01300050  RH  058%=      5-min Rain = 0
KCL2 052146Z 35015KT 13/05 A3012 RMK A01 T01300051  RH  058%=      5-min Rain = 0
KCL2 052147Z 35019KT 13/05 A3012 RMK A01 T01300051  RH  059%=      5-min Rain = 0
KCL2 052148Z 35016KT 13/05 A3012 RMK A01 T01290052  RH  059%=      5-min Rain = 0
KCL2 052149Z 35019G29KT 13/05 A3012 RMK A01 T01280053  RH  060%=      5-min Rain = 0
KCL2 052150Z 00022KT 13/05 A3012 RMK A01 T01280053  RH  060%=      5-min Rain = 0
KCL2 052151Z 35023KT 13/05 A3012 RMK A01 T01260051  RH  060%=      5-min Rain = 0
KCL2 052152Z 35023G29KT 12/05 A3012 RMK A01 T01240050  RH  060%=      5-min Rain = 0
KCL2 052153Z 35018KT 12/05 A3012 RMK A01 T01230050  RH  061%=      5-min Rain = 0
KCL2 052154Z 35018G24KT 12/05 A3012 RMK A01 T01230050  RH  061%=      5-min Rain = 0
KCL2 052155Z 35022G30KT 12/05 A3012 RMK A01 T01230050  RH  061%=      5-min Rain = 0
KCL2 052156Z 35020G25KT 12/05 A3012 RMK A01 T01230050  RH  061%=      5-min Rain = 0
KCL2 052157Z 35022G27KT 12/05 A3012 RMK A01 T01230050  RH  061%=      5-min Rain = 0
KCL2 052158Z 34018KT 12/05 A3012 RMK A01 T01230050  RH  061%=      5-min Rain = 0
KCL2 052159Z 34017G22KT 12/05 A3012 RMK A01 T01230050  RH  061%=      5-min Rain = 0
KCL2 052200Z 35020G26KT 12/05 A3012 RMK A01 T01230051  RH  061%=      5-min Rain = 0
KCL2 052201Z 35022G27KT 12/05 A3012 RMK A01 T01230051  RH  061%=      5-min Rain = 0
KCL2 052202Z 35020G26KT 12/05 A3012 RMK A01 T01230052  RH  062%=      5-min Rain = 0
KCL2 052203Z 35016KT 12/05 A3012 RMK A01 T01240052  RH  062%=      5-min Rain = 0
KCL2 052204Z 34018G24KT 12/05 A3012 RMK A01 T01240053  RH  062%=      5-min Rain = 0
KCL2 052205Z 35020KT 13/05 A3012 RMK A01 T01250053  RH  062%=      5-min Rain = 0
KCL2 052206Z 35016G23KT 12/05 A3012 RMK A01 T01240054  RH  062%=      5-min Rain = 0
KCL2 052207Z 34017G23KT 13/05 A3012 RMK A01 T01250054  RH  062%=      5-min Rain = 0
KCL2 052208Z 34018KT 13/05 A3012 RMK A01 T01250054  RH  062%=      5-min Rain = 0
KCL2 052209Z 35014G21KT 13/06 A3012 RMK A01 T01260055  RH  062%=      5-min Rain = 0
KCL2 052210Z 35017KT 13/06 A3012 RMK A01 T01270056  RH  062%=      5-min Rain = 0
KCL2 052211Z 34019G24KT 13/05 A3012 RMK A01 T01270054  RH  061%=      5-min Rain = 0
KCL2 052212Z 35020KT 13/05 A3012 RMK A01 T01270053  RH  061%=      5-min Rain = 0
KCL2 052213Z 34021G26KT 13/05 A3012 RMK A01 T01270052  RH  061%=      5-min Rain = 0
KCL2 052214Z 35024G30KT 13/05 A3013 RMK A01 T01260051  RH  060%=      5-min Rain = 0
KCL2 052215Z 35023KT 13/05 A3013 RMK A01 T01250051  RH  061%=      5-min Rain = 0
KCL2 052216Z 35022G28KT 12/05 A3013 RMK A01 T01240051  RH  061%=      5-min Rain = 0
KCL2 052217Z 35018KT 12/05 A3013 RMK A01 T01230052  RH  062%=      5-min Rain = 0
KCL2 052218Z 35021KT 12/05 A3013 RMK A01 T01230053  RH  062%=      5-min Rain = 0
KCL2 052219Z 35020G25KT 12/05 A3013 RMK A01 T01230053  RH  062%=      5-min Rain = 0
KCL2 052220Z 35025KT 12/05 A3013 RMK A01 T01220052  RH  062%=      5-min Rain = 0
KCL2 052221Z 35020G26KT 12/05 A3013 RMK A01 T01220052  RH  062%=      5-min Rain = 0
KCL2 052222Z 36018G23KT 12/05 A3013 RMK A01 T01210051  RH  062%=      5-min Rain = 0
KCL2 052223Z 35017G24KT 12/05 A3013 RMK A01 T01220051  RH  062%=      5-min Rain = 0
KCL2 052224Z 35021G28KT 12/05 A3013 RMK A01 T01210051  RH  062%=      5-min Rain = 0
KCL2 052225Z 35022KT 12/05 A3013 RMK A01 T01200051  RH  062%=      5-min Rain = 0
KCL2 052226Z 35017G24KT 12/05 A3013 RMK A01 T01190050  RH  063%=      5-min Rain = 0
KCL2 052227Z 35016KT 12/05 A3013 RMK A01 T01180051  RH  063%=      5-min Rain = 0
KCL2 052228Z 34015KT 12/05 A3013 RMK A01 T01180051  RH  064%=      5-min Rain = 0
KCL2 052229Z 35020G27KT 12/05 A3014 RMK A01 T01190052  RH  064%=      5-min Rain = 0
KCL2 052230Z 34019G25KT 12/05 A3013 RMK A01 T01180051  RH  064%=      5-min Rain = 0
KCL2 052231Z 35018G24KT 12/05 A3014 RMK A01 T01170051  RH  064%=      5-min Rain = 0
KCL2 052232Z 35019G24KT 12/05 A3014 RMK A01 T01170052  RH  064%=      5-min Rain = 0
KCL2 052233Z 35014KT 12/05 A3014 RMK A01 T01160052  RH  065%=      5-min Rain = 0
KCL2 052234Z 36018KT 12/05 A3014 RMK A01 T01160053  RH  065%=      5-min Rain = 0
KCL2 052235Z 35020KT 12/05 A3014 RMK A01 T01150053  RH  065%=      5-min Rain = 0
KCL2 052236Z 35017KT 12/05 A3014 RMK A01 T01150053  RH  066%=      5-min Rain = 0
KCL2 052237Z 35015KT 12/05 A3014 RMK A01 T01150054  RH  066%=      5-min Rain = 0
KCL2 052238Z 35016G21KT 12/05 A3014 RMK A01 T01150053  RH  066%=      5-min Rain = 0
KCL2 052239Z 35018KT 12/05 A3014 RMK A01 T01150052  RH  065%=      5-min Rain = 0
KCL2 052240Z 35022KT 12/05 A3014 RMK A01 T01150051  RH  065%=      5-min Rain = 0
KCL2 052241Z 35020KT 12/05 A3014 RMK A01 T01150052  RH  065%=      5-min Rain = 0
KCL2 052242Z 35021KT 12/05 A3014 RMK A01 T01150052  RH  065%=      5-min Rain = 0
KCL2 052243Z 35023KT 12/05 A3014 RMK A01 T01160052  RH  065%=      5-min Rain = 0
KCL2 052244Z 35021KT 12/05 A3014 RMK A01 T01150051  RH  065%=      5-min Rain = 0
KCL2 052245Z 36019G26KT 12/05 A3014 RMK A01 T01150052  RH  065%=      5-min Rain = 0
KCL2 052246Z 36022G28KT 12/05 A3014 RMK A01 T01150052  RH  065%=      5-min Rain = 0
KCL2 052247Z 35022G27KT 12/05 A3014 RMK A01 T01160052  RH  065%=      5-min Rain = 0
KCL2 052248Z 35021G28KT 12/05 A3014 RMK A01 T01160053  RH  065%=      5-min Rain = 0
KCL2 052249Z 35020G26KT 12/05 A3014 RMK A01 T01150053  RH  065%=      5-min Rain = 0
KCL2 052250Z 35017G22KT 12/05 A3014 RMK A01 T01160053  RH  065%=      5-min Rain = 0
KCL2 052251Z 34017KT 12/05 A3014 RMK A01 T01160053  RH  066%=      5-min Rain = 0
KCL2 052252Z 35017KT 12/05 A3014 RMK A01 T01150053  RH  066%=      5-min Rain = 0
KCL2 052253Z 35020G26KT 12/05 A3014 RMK A01 T01160054  RH  066%=      5-min Rain = 0
KCL2 052254Z 35021KT 12/05 A3014 RMK A01 T01150053  RH  066%=      5-min Rain = 0
KCL2 052255Z 36019G25KT 11/05 A3014 RMK A01 T01140054  RH  066%=      5-min Rain = 0
KCL2 052256Z 36022KT 11/05 A3015 RMK A01 T01130054  RH  067%=      5-min Rain = 0
KCL2 052257Z 36020KT 11/05 A3015 RMK A01 T01120053  RH  067%=      5-min Rain = 0
KCL2 052258Z 35018KT 11/05 A3015 RMK A01 T01120054  RH  067%=      5-min Rain = 0
KCL2 052259Z 35015G20KT 11/06 A3015 RMK A01 T01120055  RH  068%=      5-min Rain = 0
KCL2 052300Z 35019KT 11/06 A3015 RMK A01 T01120055  RH  068%=      5-min Rain = 0
KCL2 052301Z 35019KT 11/06 A3015 RMK A01 T01120055  RH  068%=      5-min Rain = 0
KCL2 052302Z 35020G25KT 11/06 A3015 RMK A01 T01120055  RH  068%=      5-min Rain = 0
KCL2 052303Z 36018KT 11/06 A3015 RMK A01 T01120055  RH  068%=      5-min Rain = 0
KCL2 052304Z 35018KT 11/06 A3015 RMK A01 T01120055  RH  068%=      5-min Rain = 0
KCL2 052305Z 36016KT 11/06 A3015 RMK A01 T01120056  RH  068%=      5-min Rain = 0
KCL2 052306Z 00018KT 11/06 A3015 RMK A01 T01120056  RH  068%=      5-min Rain = 0
KCL2 052307Z 36018G23KT 11/06 A3015 RMK A01 T01110056  RH  069%=      5-min Rain = 0
KCL2 052308Z 36019KT 11/06 A3015 RMK A01 T01110056  RH  069%=      5-min Rain = 0
KCL2 052309Z 36016KT 11/06 A3015 RMK A01 T01100056  RH  069%=      5-min Rain = 0
KCL2 052310Z 35018G24KT 11/06 A3015 RMK A01 T01100056  RH  069%=      5-min Rain = 0
KCL2 052311Z 35019KT 11/06 A3015 RMK A01 T01100056  RH  069%=      5-min Rain = 0
KCL2 052312Z 35016KT 11/06 A3015 RMK A01 T01100056  RH  069%=      5-min Rain = 0
KCL2 052313Z 35015KT 11/06 A3015 RMK A01 T01100057  RH  070%=      5-min Rain = 0
KCL2 052314Z 35015G21KT 11/06 A3015 RMK A01 T01090057  RH  070%=      5-min Rain = 0
KCL2 052315Z 36018G25KT 11/06 A3015 RMK A01 T01090057  RH  070%=      5-min Rain = 0
KCL2 052316Z 35020KT 11/06 A3015 RMK A01 T01090056  RH  070%=      5-min Rain = 0
KCL2 052317Z 35020G26KT 11/06 A3015 RMK A01 T01090056  RH  070%=      5-min Rain = 0
KCL2 052318Z 35019KT 11/06 A3015 RMK A01 T01080056  RH  070%=      5-min Rain = 0
KCL2 052319Z 35018KT 11/06 A3015 RMK A01 T01080056  RH  070%=      5-min Rain = 0
KCL2 052320Z 35021KT 11/06 A3015 RMK A01 T01080056  RH  070%=      5-min Rain = 0
KCL2 052321Z 35018KT 11/06 A3015 RMK A01 T01080056  RH  070%=      5-min Rain = 0
KCL2 052322Z 35017G22KT 11/06 A3015 RMK A01 T01080056  RH  071%=      5-min Rain = 0
KCL2 052323Z 35020KT 11/06 A3016 RMK A01 T01080056  RH  071%=      5-min Rain = 0
KCL2 052324Z 35019KT 11/06 A3015 RMK A01 T01080056  RH  071%=      5-min Rain = 0
KCL2 052325Z 35017KT 11/06 A3015 RMK A01 T01080057  RH  071%=      5-min Rain = 0
KCL2 052326Z 35015KT 11/06 A3016 RMK A01 T01070057  RH  071%=      5-min Rain = 0
KCL2 052327Z 35016KT 11/06 A3016 RMK A01 T01070057  RH  071%=      5-min Rain = 0
KCL2 052328Z 35019KT 11/06 A3016 RMK A01 T01070057  RH  071%=      5-min Rain = 0
KCL2 052329Z 34021KT 11/06 A3016 RMK A01 T01070057  RH  071%=      5-min Rain = 0
KCL2 052330Z 34020KT 11/06 A3016 RMK A01 T01070057  RH  071%=      5-min Rain = 0
KCL2 052331Z 34018G23KT 11/06 A3016 RMK A01 T01060057  RH  071%=      5-min Rain = 0
KCL2 052332Z 35018KT 11/06 A3016 RMK A01 T01060057  RH  072%=      5-min Rain = 0
KCL2 052333Z 35015KT 11/06 A3016 RMK A01 T01060057  RH  072%=      5-min Rain = 0
KCL2 052334Z 34013KT 11/06 A3016 RMK A01 T01060057  RH  072%=      5-min Rain = 0
KCL2 052335Z 35013KT 11/06 A3016 RMK A01 T01060058  RH  072%=      5-min Rain = 0
KCL2 052336Z 35013KT 11/06 A3016 RMK A01 T01060058  RH  072%=      5-min Rain = 0
KCL2 052337Z 36014KT 11/06 A3016 RMK A01 T01060058  RH  072%=      5-min Rain = 0
KCL2 052338Z 35015KT 11/06 A3016 RMK A01 T01070058  RH  072%=      5-min Rain = 0
KCL2 052339Z 35014KT 11/06 A3016 RMK A01 T01060058  RH  072%=      5-min Rain = 0
KCL2 052340Z 36014KT 11/06 A3016 RMK A01 T01060058  RH  072%=      5-min Rain = 0
KCL2 052341Z 36019G25KT 11/06 A3016 RMK A01 T01060058  RH  072%=      5-min Rain = 0
KCL2 052342Z 35018G23KT 11/06 A3017 RMK A01 T01060058  RH  072%=      5-min Rain = 0
KCL2 052343Z 35017KT 11/06 A3017 RMK A01 T01050058  RH  072%=      5-min Rain = 0
KCL2 052344Z 35017G23KT 11/06 A3017 RMK A01 T01050058  RH  073%=      5-min Rain = 0
KCL2 052345Z 36018KT 11/06 A3017 RMK A01 T01050058  RH  073%=      5-min Rain = 0
KCL2 052346Z 36017KT 11/06 A3017 RMK A01 T01050058  RH  073%=      5-min Rain = 0
KCL2 052347Z 35016KT 11/06 A3017 RMK A01 T01050058  RH  073%=      5-min Rain = 0
KCL2 052348Z 36015G20KT 11/06 A3017 RMK A01 T01050059  RH  073%=      5-min Rain = 0
KCL2 052349Z 00017KT 11/06 A3017 RMK A01 T01050059  RH  073%=      5-min Rain = 0
KCL2 052350Z 35017G22KT 11/06 A3017 RMK A01 T01050059  RH  073%=      5-min Rain = 0
KCL2 052351Z 36016G22KT 11/06 A3017 RMK A01 T01050059  RH  073%=      5-min Rain = 0
KCL2 052352Z 01019KT 10/06 A3017 RMK A01 T01040059  RH  073%=      5-min Rain = 0
KCL2 052353Z 36018KT 11/06 A3017 RMK A01 T01050059  RH  074%=      5-min Rain = 0
KCL2 052354Z 36017KT 11/06 A3017 RMK A01 T01050060  RH  074%=      5-min Rain = 0
KCL2 052355Z 35020KT 10/06 A3017 RMK A01 T01040060  RH  074%=      5-min Rain = 0
KCL2 052356Z 00019KT 10/06 A3017 RMK A01 T01040060  RH  074%=      5-min Rain = 0
KCL2 052357Z 01018KT 10/06 A3017 RMK A01 T01040060  RH  074%=      5-min Rain = 0
KCL2 052358Z 00016G21KT 10/06 A3017 RMK A01 T01040061  RH  075%=      5-min Rain = 0
KCL2 052359Z 00017KT 10/06 A3017 RMK A01 T01040061  RH  075%=      5-min Rain = 0
KCL2 060000Z 00014G19KT 10/06 A3017 RMK A01 T01030061  RH  075%=      5-min Rain = 0
KCL2 060001Z 35014KT 10/06 A3017 RMK A01 T01040062  RH  075%=      5-min Rain = 0
KCL2 060002Z 36015KT 10/06 A3017 RMK A01 T01040061  RH  075%=      5-min Rain = 0
KCL2 060003Z 00016G21KT 10/06 A3017 RMK A01 T01030061  RH  075%=      5-min Rain = 0
KCL2 060004Z 35017KT 10/06 A3017 RMK A01 T01030062  RH  075%=      5-min Rain = 0
KCL2 060005Z 35014G21KT 10/06 A3017 RMK A01 T01030062  RH  076%=      5-min Rain = 0
KCL2 060006Z 35016G23KT 10/06 A3018 RMK A01 T01030062  RH  076%=      5-min Rain = 0
KCL2 060007Z 35016G22KT 10/06 A3018 RMK A01 T01030062  RH  076%=      5-min Rain = 0
KCL2 060008Z 35016G21KT 10/06 A3018 RMK A01 T01030062  RH  076%=      5-min Rain = 0
KCL2 060009Z 35016KT 10/06 A3018 RMK A01 T01020062  RH  076%=      5-min Rain = 0
KCL2 060010Z 36017G22KT 10/06 A3018 RMK A01 T01020063  RH  077%=      5-min Rain = 0
KCL2 060011Z 35018KT 10/06 A3018 RMK A01 T01010063  RH  077%=      5-min Rain = 0
KCL2 060012Z 36016KT 10/06 A3018 RMK A01 T01010063  RH  077%=      5-min Rain = 0
KCL2 060013Z 36016KT 10/06 A3018 RMK A01 T01010063  RH  077%=      5-min Rain = 0
KCL2 060014Z 35016KT 10/06 A3018 RMK A01 T01010063  RH  077%=      5-min Rain = 0
KCL2 060015Z 36012KT 10/06 A3018 RMK A01 T01010063  RH  077%=      5-min Rain = 0
KCL2 060016Z 36015KT 10/06 A3018 RMK A01 T01010063  RH  077%=      5-min Rain = 0
KCL2 060017Z 35013KT 10/06 A3018 RMK A01 T01010063  RH  077%=      5-min Rain = 0
KCL2 060018Z 35017KT 10/06 A3018 RMK A01 T01010063  RH  077%=      5-min Rain = 0
KCL2 060019Z 35016KT 10/06 A3018 RMK A01 T01010063  RH  077%=      5-min Rain = 0
KCL2 060020Z 36015KT 10/06 A3018 RMK A01 T01010062  RH  077%=      5-min Rain = 0
KCL2 060021Z 35014KT 10/06 A3019 RMK A01 T01010062  RH  077%=      5-min Rain = 0
KCL2 060022Z 35012KT 10/06 A3019 RMK A01 T01010063  RH  077%=      5-min Rain = 0
KCL2 060023Z 35017KT 10/06 A3019 RMK A01 T01010063  RH  077%=      5-min Rain = 0
KCL2 060024Z 35015G20KT 10/06 A3019 RMK A01 T01010063  RH  077%=      5-min Rain = 0
KCL2 060025Z 35013KT 10/06 A3019 RMK A01 T01010063  RH  078%=      5-min Rain = 0
KCL2 060026Z 36014KT 10/06 A3019 RMK A01 T01010064  RH  078%=      5-min Rain = 0
KCL2 060027Z 35013KT 10/06 A3019 RMK A01 T01010064  RH  078%=      5-min Rain = 0
KCL2 060028Z 35017KT 10/06 A3019 RMK A01 T01000064  RH  078%=      5-min Rain = 0
KCL2 060029Z 35013KT 10/06 A3019 RMK A01 T01010064  RH  078%=      5-min Rain = 0
KCL2 060030Z 00012KT 10/06 A3019 RMK A01 T01000064  RH  078%=      5-min Rain = 0
KCL2 060031Z 36011G16KT 10/07 A3019 RMK A01 T01000065  RH  079%=      5-min Rain = 0
KCL2 060032Z 01015KT 10/07 A3019 RMK A01 T01000065  RH  079%=      5-min Rain = 0
KCL2 060033Z 01016KT 10/07 A3019 RMK A01 T01000065  RH  079%=      5-min Rain = 0
KCL2 060034Z 00014KT 10/07 A3019 RMK A01 T00990065  RH  079%=      5-min Rain = 0
KCL2 060035Z 00013KT 10/07 A3019 RMK A01 T00990065  RH  079%=      5-min Rain = 0
KCL2 060036Z 01016KT 10/07 A3019 RMK A01 T00990066  RH  080%=      5-min Rain = 0
KCL2 060037Z 01013KT 10/07 A3019 RMK A01 T00990065  RH  080%=      5-min Rain = 0
KCL2 060038Z 36011KT 10/07 A3019 RMK A01 T00990066  RH  080%=      5-min Rain = 0
KCL2 060039Z 00013KT 10/07 A3019 RMK A01 T00990066  RH  080%=      5-min Rain = 0
KCL2 060040Z 36012KT 10/07 A3019 RMK A01 T00990066  RH  080%=      5-min Rain = 0
KCL2 060041Z 00010KT 10/07 A3019 RMK A01 T00990066  RH  080%=      5-min Rain = 0
KCL2 060042Z 36015KT 10/07 A3019 RMK A01 T00990066  RH  080%=      5-min Rain = 0
KCL2 060043Z 00016KT 10/07 A3019 RMK A01 T00990066  RH  080%=      5-min Rain = 0
KCL2 060044Z 00014KT 10/07 A3019 RMK A01 T00990066  RH  080%=      5-min Rain = 0
KCL2 060045Z 35010KT 10/07 A3019 RMK A01 T00990066  RH  080%=      5-min Rain = 0
KCL2 060046Z 35012KT 10/07 A3019 RMK A01 T00990066  RH  080%=      5-min Rain = 0
KCL2 060047Z 35013KT 10/07 A3019 RMK A01 T00990066  RH  080%=      5-min Rain = 0
KCL2 060048Z 35012KT 10/07 A3019 RMK A01 T00990065  RH  080%=      5-min Rain = 0
KCL2 060049Z 36011KT 10/07 A302 RMK A01 T00990066  RH  080%=      5-min Rain = 0
KCL2 060050Z 36012KT 10/07 A302 RMK A01 T00990065  RH  080%=      5-min Rain = 0
KCL2 060051Z 36009KT 10/07 A302 RMK A01 T00990065  RH  080%=      5-min Rain = 0
KCL2 060052Z 35011KT 10/07 A302 RMK A01 T00990065  RH  080%=      5-min Rain = 0
KCL2 060053Z 36013KT 10/07 A302 RMK A01 T00990065  RH  079%=      5-min Rain = 0
KCL2 060054Z 36013KT 10/07 A302 RMK A01 T00990065  RH  079%=      5-min Rain = 0
KCL2 060055Z 35013KT 10/06 A302 RMK A01 T00990064  RH  079%=      5-min Rain = 0
KCL2 060056Z 36011KT 10/07 A302 RMK A01 T01000065  RH  079%=      5-min Rain = 0
KCL2 060057Z 35011KT 10/07 A302 RMK A01 T00990065  RH  079%=      5-min Rain = 0
KCL2 060058Z 36010KT 10/06 A302 RMK A01 T00990064  RH  079%=      5-min Rain = 0
KCL2 060059Z 35010KT 10/06 A302 RMK A01 T01000064  RH  079%=      5-min Rain = 0
KCL2 060100Z 36010KT 10/06 A302 RMK A01 T01000064  RH  079%=      5-min Rain = 0
KCL2 060101Z 36009KT 10/06 A302 RMK A01 T01000064  RH  078%=      5-min Rain = 0
KCL2 060102Z 34010KT 10/06 A302 RMK A01 T01000064  RH  078%=      5-min Rain = 0
KCL2 060103Z 36011KT 10/06 A302 RMK A01 T01000064  RH  078%=      5-min Rain = 0
KCL2 060104Z 35010KT 10/06 A302 RMK A01 T01000064  RH  078%=      5-min Rain = 0
KCL2 060105Z 36009KT 10/06 A302 RMK A01 T01000064  RH  078%=      5-min Rain = 0
KCL2 060106Z 00012KT 10/06 A302 RMK A01 T01000064  RH  078%=      5-min Rain = 0
KCL2 060107Z 35012KT 10/06 A302 RMK A01 T01010064  RH  078%=      5-min Rain = 0
KCL2 060108Z 35009KT 10/06 A302 RMK A01 T01010064  RH  078%=      5-min Rain = 0
KCL2 060109Z 00008G13KT 10/06 A302 RMK A01 T01010064  RH  078%=      5-min Rain = 0
KCL2 060110Z 35011KT 10/06 A302 RMK A01 T01010064  RH  078%=      5-min Rain = 0
KCL2 060111Z 35010KT 10/06 A302 RMK A01 T01010063  RH  078%=      5-min Rain = 0
KCL2 060112Z 35012KT 10/06 A302 RMK A01 T01010064  RH  077%=      5-min Rain = 0
KCL2 060113Z 35013KT 10/06 A302 RMK A01 T01010063  RH  077%=      5-min Rain = 0
KCL2 060114Z 35012KT 10/06 A302 RMK A01 T01010063  RH  077%=      5-min Rain = 0
KCL2 060115Z 35010G15KT 10/06 A302 RMK A01 T01010063  RH  077%=      5-min Rain = 0
KCL2 060116Z 35010KT 10/06 A302 RMK A01 T01010063  RH  077%=      5-min Rain = 0
KCL2 060117Z 35010KT 10/06 A3021 RMK A01 T01010063  RH  077%=      5-min Rain = 0
KCL2 060118Z 35011KT 10/06 A302 RMK A01 T01010063  RH  077%=      5-min Rain = 0
KCL2 060119Z 35010KT 10/06 A3021 RMK A01 T01010063  RH  077%=      5-min Rain = 0
KCL2 060120Z 35009KT 10/06 A3021 RMK A01 T01010063  RH  077%=      5-min Rain = 0
KCL2 060121Z 35010KT 10/06 A3021 RMK A01 T01010063  RH  077%=      5-min Rain = 0
KCL2 060122Z 35010KT 10/06 A3021 RMK A01 T01010063  RH  077%=      5-min Rain = 0
KCL2 060123Z 35008KT 10/06 A3021 RMK A01 T01020063  RH  077%=      5-min Rain = 0
KCL2 060124Z 35011KT 10/06 A3021 RMK A01 T01020063  RH  077%=      5-min Rain = 0
KCL2 060125Z 34013KT 10/06 A3021 RMK A01 T01020062  RH  077%=      5-min Rain = 0
KCL2 060126Z 35011KT 10/06 A3021 RMK A01 T01020062  RH  076%=      5-min Rain = 0
KCL2 060127Z 35011KT 10/06 A3021 RMK A01 T01020062  RH  076%=      5-min Rain = 0
KCL2 060128Z 35011KT 10/06 A3021 RMK A01 T01020062  RH  076%=      5-min Rain = 0
KCL2 060129Z 35010KT 10/06 A3021 RMK A01 T01020063  RH  077%=      5-min Rain = 0
KCL2 060130Z 35010KT 10/06 A3021 RMK A01 T01020063  RH  077%=      5-min Rain = 0
KCL2 060131Z 36014KT 10/06 A3021 RMK A01 T01020062  RH  077%=      5-min Rain = 0
KCL2 060132Z 35010KT 10/06 A3021 RMK A01 T01020062  RH  076%=      5-min Rain = 0
KCL2 060133Z 35010KT 10/06 A3021 RMK A01 T01020062  RH  076%=      5-min Rain = 0
KCL2 060134Z 36010KT 10/06 A3021 RMK A01 T01020062  RH  076%=      5-min Rain = 0
KCL2 060135Z 35009KT 10/06 A3021 RMK A01 T01020063  RH  076%=      5-min Rain = 0
KCL2 060136Z 35011KT 10/06 A3021 RMK A01 T01020063  RH  076%=      5-min Rain = 0
KCL2 060137Z 35011KT 10/06 A3021 RMK A01 T01020063  RH  076%=      5-min Rain = 0
KCL2 060138Z 35011KT 10/06 A3021 RMK A01 T01020063  RH  076%=      5-min Rain = 0
KCL2 060139Z 36012KT 10/06 A3021 RMK A01 T01020063  RH  076%=      5-min Rain = 0
KCL2 060140Z 36009KT 10/06 A3021 RMK A01 T01020063  RH  076%=      5-min Rain = 0
KCL2 060141Z 35008KT 10/06 A3021 RMK A01 T01020063  RH  077%=      5-min Rain = 0
KCL2 060142Z 35011KT 10/06 A3021 RMK A01 T01020063  RH  077%=      5-min Rain = 0
KCL2 060143Z 35012KT 10/06 A3021 RMK A01 T01020063  RH  077%=      5-min Rain = 0
KCL2 060144Z 35011KT 10/06 A3021 RMK A01 T01020063  RH  077%=      5-min Rain = 0
KCL2 060145Z 35012KT 10/06 A3021 RMK A01 T01020063  RH  077%=      5-min Rain = 0
KCL2 060146Z 35010KT 10/06 A3021 RMK A01 T01020063  RH  077%=      5-min Rain = 0
KCL2 060147Z 35010KT 10/06 A3021 RMK A01 T01020063  RH  077%=      5-min Rain = 0
KCL2 060148Z 35012KT 10/06 A3021 RMK A01 T01020063  RH  077%=      5-min Rain = 0
KCL2 060149Z 35011KT 10/06 A3021 RMK A01 T01020063  RH  077%=      5-min Rain = 0
KCL2 060150Z 35014KT 10/06 A3021 RMK A01 T01020063  RH  077%=      5-min Rain = 0
KCL2 060151Z 35013KT 10/06 A3021 RMK A01 T01020063  RH  077%=      5-min Rain = 0
KCL2 060152Z 36012KT 10/06 A3022 RMK A01 T01020063  RH  076%=      5-min Rain = 0
KCL2 060153Z 35012KT 10/06 A3022 RMK A01 T01030063  RH  077%=      5-min Rain = 0
KCL2 060154Z 35012KT 10/06 A3022 RMK A01 T01030063  RH  077%=      5-min Rain = 0
KCL2 060155Z 35014KT 10/06 A3022 RMK A01 T01030064  RH  077%=      5-min Rain = 0
KCL2 060156Z 35012KT 10/06 A3022 RMK A01 T01030063  RH  077%=      5-min Rain = 0
KCL2 060157Z 35013KT 10/06 A3022 RMK A01 T01030063  RH  077%=      5-min Rain = 0
KCL2 060158Z 35013KT 10/06 A3022 RMK A01 T01030063  RH  077%=      5-min Rain = 0
KCL2 060159Z 35011KT 10/06 A3022 RMK A01 T01030063  RH  077%=      5-min Rain = 0
KCL2 060200Z 35010KT 10/06 A3022 RMK A01 T01030063  RH  077%=      5-min Rain = 0
KCL2 060201Z 35011KT 10/06 A3022 RMK A01 T01020063  RH  077%=      5-min Rain = 0
KCL2 060202Z 35011KT 10/06 A3022 RMK A01 T01020063  RH  077%=      5-min Rain = 0
KCL2 060203Z 35011KT 10/06 A3022 RMK A01 T01020063  RH  077%=      5-min Rain = 0
KCL2 060204Z 35012KT 10/06 A3022 RMK A01 T01020063  RH  077%=      5-min Rain = 0
KCL2 060205Z 35013KT 10/06 A3022 RMK A01 T01020063  RH  077%=      5-min Rain = 0
KCL2 060206Z 35011KT 10/06 A3022 RMK A01 T01020063  RH  077%=      5-min Rain = 0
KCL2 060207Z 36011KT 10/06 A3022 RMK A01 T01020063  RH  077%=      5-min Rain = 0
KCL2 060208Z 36009KT 10/06 A3022 RMK A01 T01020063  RH  077%=      5-min Rain = 0
KCL2 060209Z 36011KT 10/06 A3022 RMK A01 T01020063  RH  077%=      5-min Rain = 0
KCL2 060210Z 35011KT 10/06 A3022 RMK A01 T01020063  RH  077%=      5-min Rain = 0
KCL2 060211Z 35010KT 10/06 A3022 RMK A01 T01020063  RH  077%=      5-min Rain = 0
KCL2 060212Z 35011KT 10/06 A3022 RMK A01 T01020063  RH  077%=      5-min Rain = 0
KCL2 060213Z 35010KT 10/06 A3022 RMK A01 T01020063  RH  077%=      5-min Rain = 0
KCL2 060214Z 36012KT 10/06 A3022 RMK A01 T01020063  RH  077%=      5-min Rain = 0
KCL2 060215Z 35009KT 10/06 A3022 RMK A01 T01020063  RH  077%=      5-min Rain = 0
KCL2 060216Z 35011KT 10/06 A3022 RMK A01 T01020063  RH  077%=      5-min Rain = 0
KCL2 060217Z 35011KT 10/06 A3022 RMK A01 T01020063  RH  076%=      5-min Rain = 0
KCL2 060218Z 00011KT 10/06 A3022 RMK A01 T01020063  RH  076%=      5-min Rain = 0
KCL2 060219Z 00015KT 10/06 A3022 RMK A01 T01020063  RH  076%=      5-min Rain = 0
KCL2 060220Z 35012KT 10/06 A3022 RMK A01 T01020062  RH  076%=      5-min Rain = 0
KCL2 060221Z 35013KT 10/06 A3022 RMK A01 T01020062  RH  076%=      5-min Rain = 0
KCL2 060222Z 35013KT 10/06 A3023 RMK A01 T01020062  RH  076%=      5-min Rain = 0
KCL2 060223Z 35011KT 10/06 A3023 RMK A01 T01020062  RH  076%=      5-min Rain = 0
KCL2 060224Z 36010KT 10/06 A3023 RMK A01 T01020062  RH  076%=      5-min Rain = 0
KCL2 060225Z 36010KT 10/06 A3023 RMK A01 T01020062  RH  076%=      5-min Rain = 0
KCL2 060226Z 35010KT 10/06 A3023 RMK A01 T01020062  RH  076%=      5-min Rain = 0
KCL2 060227Z 00011KT 10/06 A3023 RMK A01 T01020062  RH  076%=      5-min Rain = 0
KCL2 060228Z 36010KT 10/06 A3023 RMK A01 T01020062  RH  076%=      5-min Rain = 0
KCL2 060229Z 00011KT 10/06 A3023 RMK A01 T01020062  RH  076%=      5-min Rain = 0
KCL2 060230Z 00011KT 10/06 A3023 RMK A01 T01020062  RH  076%=      5-min Rain = 0
KCL2 060231Z 35010KT 10/06 A3023 RMK A01 T01020062  RH  076%=      5-min Rain = 0
KCL2 060232Z 36011KT 10/06 A3023 RMK A01 T01020061  RH  076%=      5-min Rain = 0
KCL2 060233Z 36011KT 10/06 A3023 RMK A01 T01020061  RH  076%=      5-min Rain = 0
KCL2 060234Z 36010KT 10/06 A3023 RMK A01 T01020061  RH  076%=      5-min Rain = 0
KCL2 060235Z 36010KT 10/06 A3023 RMK A01 T01020062  RH  076%=      5-min Rain = 0
KCL2 060236Z 00009G14KT 10/06 A3023 RMK A01 T01020062  RH  076%=      5-min Rain = 0
KCL2 060237Z 36012KT 10/06 A3023 RMK A01 T01020062  RH  076%=      5-min Rain = 0
KCL2 060238Z 36010KT 10/06 A3023 RMK A01 T01020061  RH  076%=      5-min Rain = 0
KCL2 060239Z 36010KT 10/06 A3023 RMK A01 T01020061  RH  076%=      5-min Rain = 0
KCL2 060240Z 35010KT 10/06 A3023 RMK A01 T01020061  RH  076%=      5-min Rain = 0
KCL2 060241Z 36010KT 10/06 A3023 RMK A01 T01020061  RH  076%=      5-min Rain = 0
KCL2 060242Z 35009KT 10/06 A3024 RMK A01 T01030062  RH  076%=      5-min Rain = 0
KCL2 060243Z 35009KT 10/06 A3024 RMK A01 T01030062  RH  076%=      5-min Rain = 0
KCL2 060244Z 35010KT 10/06 A3024 RMK A01 T01030062  RH  076%=      5-min Rain = 0
KCL2 060245Z 35010KT 10/06 A3024 RMK A01 T01030062  RH  076%=      5-min Rain = 0
KCL2 060246Z 36009KT 10/06 A3024 RMK A01 T01030061  RH  076%=      5-min Rain = 0
KCL2 060247Z 35010KT 10/06 A3024 RMK A01 T01020061  RH  076%=      5-min Rain = 0
KCL2 060248Z 35011KT 10/06 A3024 RMK A01 T01030061  RH  075%=      5-min Rain = 0
KCL2 060249Z 35010KT 10/06 A3024 RMK A01 T01030061  RH  075%=      5-min Rain = 0
KCL2 060250Z 35009KT 10/06 A3024 RMK A01 T01030061  RH  075%=      5-min Rain = 0
KCL2 060251Z 35010KT 10/06 A3024 RMK A01 T01030061  RH  075%=      5-min Rain = 0
KCL2 060252Z 35011KT 10/06 A3024 RMK A01 T01030061  RH  075%=      5-min Rain = 0
KCL2 060253Z 36009KT 10/06 A3024 RMK A01 T01030061  RH  075%=      5-min Rain = 0
KCL2 060254Z 35009KT 10/06 A3024 RMK A01 T01030062  RH  075%=      5-min Rain = 0
KCL2 060255Z 36009KT 10/06 A3024 RMK A01 T01030061  RH  075%=      5-min Rain = 0
KCL2 060256Z 35010KT 10/06 A3024 RMK A01 T01030061  RH  075%=      5-min Rain = 0
KCL2 060257Z 35009KT 10/06 A3024 RMK A01 T01030061  RH  075%=      5-min Rain = 0
KCL2 060258Z 35008KT 10/06 A3024 RMK A01 T01030062  RH  075%=      5-min Rain = 0
KCL2 060259Z 35009KT 10/06 A3024 RMK A01 T01030062  RH  076%=      5-min Rain = 0
KCL2 060300Z 35009KT 10/06 A3024 RMK A01 T01030061  RH  076%=      5-min Rain = 0
KCL2 060301Z 35009KT 10/06 A3024 RMK A01 T01030061  RH  076%=      5-min Rain = 0
KCL2 060302Z 35008KT 10/06 A3024 RMK A01 T01030061  RH  076%=      5-min Rain = 0
KCL2 060303Z 34008KT 10/06 A3024 RMK A01 T01030062  RH  076%=      5-min Rain = 0
KCL2 060304Z 35008KT 10/06 A3024 RMK A01 T01020062  RH  076%=      5-min Rain = 0
KCL2 060305Z 35009KT 10/06 A3024 RMK A01 T01020062  RH  076%=      5-min Rain = 0
KCL2 060306Z 35009KT 10/06 A3024 RMK A01 T01020061  RH  076%=      5-min Rain = 0
KCL2 060307Z 35009KT 10/06 A3024 RMK A01 T01020061  RH  076%=      5-min Rain = 0
KCL2 060308Z 35009KT 10/06 A3024 RMK A01 T01020062  RH  076%=      5-min Rain = 0
KCL2 060309Z 35009KT 10/06 A3024 RMK A01 T01020062  RH  076%=      5-min Rain = 0
KCL2 060310Z 35009KT 10/06 A3024 RMK A01 T01020062  RH  076%=      5-min Rain = 0
KCL2 060311Z 35010KT 10/06 A3024 RMK A01 T01020061  RH  076%=      5-min Rain = 0
KCL2 060312Z 34009KT 10/06 A3024 RMK A01 T01020061  RH  076%=      5-min Rain = 0
KCL2 060313Z 35009KT 10/06 A3024 RMK A01 T01020061  RH  076%=      5-min Rain = 0
KCL2 060314Z 34008KT 10/06 A3024 RMK A01 T01020061  RH  076%=      5-min Rain = 0
KCL2 060315Z 35010KT 10/06 A3025 RMK A01 T01020061  RH  076%=      5-min Rain = 0
KCL2 060316Z 34010KT 10/06 A3025 RMK A01 T01020061  RH  076%=      5-min Rain = 0
KCL2 060317Z 35009KT 10/06 A3025 RMK A01 T01020061  RH  076%=      5-min Rain = 0
KCL2 060318Z 35008KT 10/06 A3025 RMK A01 T01020061  RH  076%=      5-min Rain = 0
KCL2 060319Z 35009KT 10/06 A3025 RMK A01 T01020061  RH  076%=      5-min Rain = 0
KCL2 060320Z 34009KT 10/06 A3025 RMK A01 T01020061  RH  076%=      5-min Rain = 0
KCL2 060321Z 34007KT 10/06 A3025 RMK A01 T01020061  RH  076%=      5-min Rain = 0
KCL2 060322Z 35009KT 10/06 A3025 RMK A01 T01010061  RH  076%=      5-min Rain = 0
KCL2 060323Z 34008KT 10/06 A3025 RMK A01 T01010061  RH  076%=      5-min Rain = 0
KCL2 060324Z 34010KT 10/06 A3025 RMK A01 T01010061  RH  076%=      5-min Rain = 0
KCL2 060325Z 34010KT 10/06 A3025 RMK A01 T01010061  RH  076%=      5-min Rain = 0
KCL2 060326Z 34010KT 10/06 A3025 RMK A01 T01010060  RH  076%=      5-min Rain = 0
KCL2 060327Z 34010KT 10/06 A3025 RMK A01 T01010060  RH  076%=      5-min Rain = 0
KCL2 060328Z 34010KT 10/06 A3025 RMK A01 T01010060  RH  076%=      5-min Rain = 0
KCL2 060329Z 34010KT 10/06 A3025 RMK A01 T01010060  RH  076%=      5-min Rain = 0
KCL2 060330Z 34008KT 10/06 A3025 RMK A01 T01010060  RH  076%=      5-min Rain = 0
KCL2 060331Z 35009KT 10/06 A3025 RMK A01 T01010060  RH  076%=      5-min Rain = 0
KCL2 060332Z 34008KT 10/06 A3025 RMK A01 T01010060  RH  076%=      5-min Rain = 0
KCL2 060333Z 34009KT 10/06 A3025 RMK A01 T01010060  RH  076%=      5-min Rain = 0
KCL2 060334Z 34007KT 10/06 A3025 RMK A01 T01010060  RH  076%=      5-min Rain = 0
KCL2 060335Z 35009KT 10/06 A3025 RMK A01 T01010060  RH  076%=      5-min Rain = 0
KCL2 060336Z 34009KT 10/06 A3025 RMK A01 T01010060  RH  076%=      5-min Rain = 0
KCL2 060337Z 34010KT 10/06 A3025 RMK A01 T01000060  RH  076%=      5-min Rain = 0
KCL2 060338Z 34009KT 10/06 A3025 RMK A01 T01000060  RH  076%=      5-min Rain = 0
KCL2 060339Z 34009KT 10/06 A3025 RMK A01 T01000060  RH  076%=      5-min Rain = 0
KCL2 060340Z 34010KT 10/06 A3025 RMK A01 T01000060  RH  076%=      5-min Rain = 0
KCL2 060341Z 34010KT 10/06 A3025 RMK A01 T01000059  RH  076%=      5-min Rain = 0
KCL2 060342Z 34011KT 10/06 A3025 RMK A01 T01000059  RH  076%=      5-min Rain = 0
KCL2 060343Z 35009KT 10/06 A3026 RMK A01 T01010060  RH  076%=      5-min Rain = 0
KCL2 060344Z 35011KT 10/06 A3025 RMK A01 T01000059  RH  076%=      5-min Rain = 0
KCL2 060345Z 35011KT 10/06 A3026 RMK A01 T01000059  RH  076%=      5-min Rain = 0
KCL2 060346Z 35008KT 10/06 A3026 RMK A01 T01010060  RH  076%=      5-min Rain = 0
KCL2 060347Z 35008KT 10/06 A3026 RMK A01 T01000059  RH  076%=      5-min Rain = 0
KCL2 060348Z 35010KT 10/06 A3026 RMK A01 T01000059  RH  076%=      5-min Rain = 0
KCL2 060349Z 36011KT 10/06 A3026 RMK A01 T01000059  RH  076%=      5-min Rain = 0
KCL2 060350Z 35010KT 10/06 A3026 RMK A01 T01010059  RH  076%=      5-min Rain = 0
KCL2 060351Z 00010KT 10/06 A3026 RMK A01 T01010060  RH  076%=      5-min Rain = 0
KCL2 060352Z 35009KT 10/06 A3026 RMK A01 T01000059  RH  076%=      5-min Rain = 0
KCL2 060353Z 36012KT 10/06 A3026 RMK A01 T01010060  RH  076%=      5-min Rain = 0
KCL2 060354Z 00013KT 10/06 A3026 RMK A01 T01000059  RH  076%=      5-min Rain = 0
KCL2 060355Z 36010KT 10/06 A3026 RMK A01 T01000059  RH  075%=      5-min Rain = 0
KCL2 060356Z 36010KT 10/06 A3026 RMK A01 T01000059  RH  075%=      5-min Rain = 0
KCL2 060357Z 35009KT 10/06 A3026 RMK A01 T01000059  RH  075%=      5-min Rain = 0
KCL2 060358Z 36010KT 10/06 A3026 RMK A01 T01000059  RH  075%=      5-min Rain = 0
KCL2 060359Z 00009KT 10/06 A3026 RMK A01 T01010059  RH  075%=      5-min Rain = 0
KCL2 060400Z 35009KT 10/06 A3026 RMK A01 T01010059  RH  076%=      5-min Rain = 0
KCL2 060401Z 00011KT 10/06 A3026 RMK A01 T01000059  RH  076%=      5-min Rain = 0
KCL2 060402Z 00009KT 10/06 A3026 RMK A01 T01000059  RH  076%=      5-min Rain = 0
KCL2 060403Z 35010KT 10/06 A3026 RMK A01 T01000059  RH  076%=      5-min Rain = 0
KCL2 060404Z 36009KT 10/06 A3026 RMK A01 T01000059  RH  076%=      5-min Rain = 0
KCL2 060405Z 35008KT 10/06 A3026 RMK A01 T01000059  RH  076%=      5-min Rain = 0
KCL2 060406Z 00009KT 10/06 A3026 RMK A01 T01000059  RH  076%=      5-min Rain = 0
KCL2 060407Z 35008KT 10/06 A3026 RMK A01 T00990059  RH  076%=      5-min Rain = 0
KCL2 060408Z 35009KT 10/06 A3026 RMK A01 T01000059  RH  076%=      5-min Rain = 0
KCL2 060409Z 36009KT 10/06 A3026 RMK A01 T01000059  RH  076%=      5-min Rain = 0
KCL2 060410Z 36008KT 10/06 A3026 RMK A01 T00990059  RH  076%=      5-min Rain = 0
KCL2 060411Z 35009KT 10/06 A3026 RMK A01 T00990059  RH  076%=      5-min Rain = 0
KCL2 060412Z 00010KT 10/06 A3026 RMK A01 T00990059  RH  076%=      5-min Rain = 0
KCL2 060413Z 35009KT 10/06 A3026 RMK A01 T00990059  RH  076%=      5-min Rain = 0
KCL2 060414Z 36008KT 10/06 A3026 RMK A01 T00990059  RH  076%=      5-min Rain = 0
KCL2 060415Z 00007KT 10/06 A3026 RMK A01 T00980059  RH  076%=      5-min Rain = 0
KCL2 060416Z 00009KT 10/06 A3026 RMK A01 T00990060  RH  077%=      5-min Rain = 0
KCL2 060417Z 36008KT 10/06 A3026 RMK A01 T00980059  RH  077%=      5-min Rain = 0
KCL2 060418Z 36009KT 10/06 A3026 RMK A01 T00980059  RH  077%=      5-min Rain = 0
KCL2 060419Z 01010KT 10/06 A3026 RMK A01 T00980059  RH  077%=      5-min Rain = 0
KCL2 060420Z 00009KT 10/06 A3026 RMK A01 T00980059  RH  077%=      5-min Rain = 0
KCL2 060421Z 00008KT 10/06 A3026 RMK A01 T00980059  RH  077%=      5-min Rain = 0
KCL2 060422Z 36008KT 10/06 A3026 RMK A01 T00980059  RH  077%=      5-min Rain = 0
KCL2 060423Z 36007KT 10/06 A3026 RMK A01 T00970059  RH  077%=      5-min Rain = 0
KCL2 060424Z 00007KT 10/06 A3026 RMK A01 T00970059  RH  077%=      5-min Rain = 0
KCL2 060425Z 00009KT 10/06 A3026 RMK A01 T00970059  RH  077%=      5-min Rain = 0
KCL2 060426Z 00008KT 10/06 A3026 RMK A01 T00970059  RH  077%=      5-min Rain = 0
KCL2 060427Z 00008KT 10/06 A3026 RMK A01 T00970059  RH  077%=      5-min Rain = 0
KCL2 060428Z 00008KT 10/06 A3026 RMK A01 T00970059  RH  077%=      5-min Rain = 0
KCL2 060429Z 36009KT 10/06 A3026 RMK A01 T00970059  RH  077%=      5-min Rain = 0
KCL2 060430Z 00009KT 10/06 A3026 RMK A01 T00960059  RH  077%=      5-min Rain = 0
KCL2 060431Z 00008KT 10/06 A3026 RMK A01 T00960059  RH  077%=      5-min Rain = 0
KCL2 060432Z 36009KT 10/06 A3026 RMK A01 T00950058  RH  077%=      5-min Rain = 0
KCL2 060433Z 00008KT 10/06 A3026 RMK A01 T00950058  RH  078%=      5-min Rain = 0
KCL2 060434Z 36008KT 10/06 A3026 RMK A01 T00950058  RH  078%=      5-min Rain = 0
KCL2 060435Z 00008KT 09/06 A3026 RMK A01 T00940058  RH  078%=      5-min Rain = 0
KCL2 060436Z 00008KT 09/06 A3026 RMK A01 T00940058  RH  078%=      5-min Rain = 0
KCL2 060437Z 00008KT 09/06 A3026 RMK A01 T00930058  RH  078%=      5-min Rain = 0
KCL2 060438Z 00008KT 09/06 A3026 RMK A01 T00930057  RH  078%=      5-min Rain = 0
KCL2 060439Z 36007KT 09/06 A3026 RMK A01 T00930058  RH  079%=      5-min Rain = 0
KCL2 060440Z 01008KT 09/06 A3026 RMK A01 T00920057  RH  079%=      5-min Rain = 0
KCL2 060441Z 01007KT 09/06 A3026 RMK A01 T00910057  RH  079%=      5-min Rain = 0
KCL2 060442Z 01007KT 09/06 A3026 RMK A01 T00920057  RH  079%=      5-min Rain = 0
KCL2 060443Z 01008KT 09/06 A3026 RMK A01 T00910057  RH  079%=      5-min Rain = 0
KCL2 060444Z 01009KT 09/06 A3026 RMK A01 T00920058  RH  079%=      5-min Rain = 0
KCL2 060445Z 01009KT 09/06 A3026 RMK A01 T00910058  RH  079%=      5-min Rain = 0
KCL2 060446Z 01008KT 09/06 A3026 RMK A01 T00910057  RH  079%=      5-min Rain = 0
KCL2 060447Z 01007KT 09/06 A3026 RMK A01 T00910057  RH  079%=      5-min Rain = 0
KCL2 060448Z 01007KT 09/06 A3026 RMK A01 T00900057  RH  080%=      5-min Rain = 0
KCL2 060449Z 01008KT 09/06 A3026 RMK A01 T00900057  RH  080%=      5-min Rain = 0
KCL2 060450Z 01008KT 09/06 A3026 RMK A01 T00900057  RH  080%=      5-min Rain = 0
KCL2 060451Z 01007KT 09/06 A3027 RMK A01 T00890057  RH  080%=      5-min Rain = 0
KCL2 060452Z 01008KT 09/06 A3026 RMK A01 T00890057  RH  080%=      5-min Rain = 0
KCL2 060453Z 01008KT 09/06 A3027 RMK A01 T00890057  RH  080%=      5-min Rain = 0
KCL2 060454Z 01007KT 09/06 A3027 RMK A01 T00890057  RH  080%=      5-min Rain = 0
KCL2 060455Z 01006KT 09/06 A3027 RMK A01 T00890057  RH  080%=      5-min Rain = 0
KCL2 060456Z 00008KT 09/06 A3027 RMK A01 T00890057  RH  080%=      5-min Rain = 0
KCL2 060457Z 00005KT 09/06 A3027 RMK A01 T00890057  RH  081%=      5-min Rain = 0
KCL2 060458Z 00007KT 09/06 A3027 RMK A01 T00890058  RH  081%=      5-min Rain = 0
KCL2 060459Z 00006KT 09/06 A3027 RMK A01 T00890058  RH  081%=      5-min Rain = 0
KCL2 060500Z 36006KT 09/06 A3026 RMK A01 T00890057  RH  081%=      5-min Rain = 0
KCL2 060501Z 36007KT 09/06 A3026 RMK A01 T00890057  RH  081%=      5-min Rain = 0
KCL2 060502Z 00008KT 09/06 A3027 RMK A01 T00890057  RH  081%=      5-min Rain = 0
KCL2 060503Z 36006KT 09/06 A3026 RMK A01 T00890058  RH  081%=      5-min Rain = 0
KCL2 060504Z 00007KT 09/06 A3026 RMK A01 T00890057  RH  081%=      5-min Rain = 0
KCL2 060505Z 01006KT 09/06 A3027 RMK A01 T00890057  RH  081%=      5-min Rain = 0
KCL2 060506Z 01007KT 09/06 A3026 RMK A01 T00890057  RH  081%=      5-min Rain = 0
KCL2 060507Z 00006KT 09/06 A3027 RMK A01 T00890058  RH  081%=      5-min Rain = 0
KCL2 060508Z 36007KT 09/06 A3027 RMK A01 T00890057  RH  080%=      5-min Rain = 0
KCL2 060509Z 36006KT 09/06 A3027 RMK A01 T00900057  RH  080%=      5-min Rain = 0
KCL2 060510Z 36006KT 09/06 A3027 RMK A01 T00900057  RH  080%=      5-min Rain = 0
KCL2 060511Z 36008KT 09/06 A3027 RMK A01 T00900058  RH  080%=      5-min Rain = 0
KCL2 060512Z 36007KT 09/06 A3027 RMK A01 T00900058  RH  080%=      5-min Rain = 0
KCL2 060513Z 00006KT 09/06 A3027 RMK A01 T00900058  RH  080%=      5-min Rain = 0
KCL2 060514Z 36007KT 09/06 A3027 RMK A01 T00900058  RH  080%=      5-min Rain = 0
KCL2 060515Z 36007KT 09/06 A3027 RMK A01 T00910058  RH  080%=      5-min Rain = 0
KCL2 060516Z 00007KT 09/06 A3027 RMK A01 T00910058  RH  080%=      5-min Rain = 0
KCL2 060517Z 36007KT 09/06 A3027 RMK A01 T00910058  RH  080%=      5-min Rain = 0
KCL2 060518Z 36008KT 09/06 A3027 RMK A01 T00910058  RH  080%=      5-min Rain = 0
KCL2 060519Z 36007KT 09/06 A3027 RMK A01 T00910058  RH  080%=      5-min Rain = 0
KCL2 060520Z 36006KT 09/06 A3027 RMK A01 T00910058  RH  080%=      5-min Rain = 0
KCL2 060521Z 36008KT 09/06 A3027 RMK A01 T00920058  RH  080%=      5-min Rain = 0
KCL2 060522Z 00008KT 09/06 A3027 RMK A01 T00920058  RH  079%=      5-min Rain = 0
KCL2 060523Z 00007KT 09/06 A3027 RMK A01 T00920058  RH  079%=      5-min Rain = 0
KCL2 060524Z 35007KT 09/06 A3027 RMK A01 T00920059  RH  079%=      5-min Rain = 0
KCL2 060525Z 36007KT 09/06 A3027 RMK A01 T00920058  RH  079%=      5-min Rain = 0
KCL2 060526Z 36006KT 09/06 A3027 RMK A01 T00920058  RH  079%=      5-min Rain = 0
KCL2 060527Z 35006KT 09/06 A3027 RMK A01 T00920058  RH  079%=      5-min Rain = 0
KCL2 060528Z 36006KT 09/06 A3027 RMK A01 T00920058  RH  079%=      5-min Rain = 0
KCL2 060529Z 35006KT 09/06 A3027 RMK A01 T00920058  RH  080%=      5-min Rain = 0
KCL2 060530Z 35006KT 09/06 A3027 RMK A01 T00910058  RH  080%=      5-min Rain = 0
KCL2 060531Z 35005KT 09/06 A3027 RMK A01 T00910058  RH  080%=      5-min Rain = 0
KCL2 060532Z 35006KT 09/06 A3027 RMK A01 T00910058  RH  080%=      5-min Rain = 0
KCL2 060533Z 35006KT 09/06 A3027 RMK A01 T00910058  RH  080%=      5-min Rain = 0
KCL2 060534Z 35006KT 09/06 A3028 RMK A01 T00900057  RH  080%=      5-min Rain = 0
KCL2 060535Z 35005KT 09/06 A3028 RMK A01 T00900057  RH  080%=      5-min Rain = 0
KCL2 060536Z 35005KT 09/06 A3028 RMK A01 T00890056  RH  080%=      5-min Rain = 0
KCL2 060537Z 35006KT 09/06 A3028 RMK A01 T00880055  RH  080%=      5-min Rain = 0
KCL2 060538Z 35005KT 09/06 A3028 RMK A01 T00870056  RH  080%=      5-min Rain = 0
KCL2 060539Z 35005KT 09/06 A3028 RMK A01 T00860055  RH  081%=      5-min Rain = 0
KCL2 060540Z 35005KT 09/05 A3028 RMK A01 T00850054  RH  081%=      5-min Rain = 0
KCL2 060541Z 35005KT 08/05 A3028 RMK A01 T00840054  RH  081%=      5-min Rain = 0
KCL2 060542Z 33004KT 08/05 A3028 RMK A01 T00830053  RH  081%=      5-min Rain = 0
KCL2 060543Z 33004KT 08/05 A3028 RMK A01 T00810052  RH  082%=      5-min Rain = 0
KCL2 060544Z 32005KT 08/05 A3028 RMK A01 T00790050  RH  082%=      5-min Rain = 0
KCL2 060545Z 33004KT 08/05 A3028 RMK A01 T00770049  RH  082%=      5-min Rain = 0
KCL2 060546Z 33005KT 08/05 A3028 RMK A01 T00750049  RH  083%=      5-min Rain = 0
KCL2 060547Z 33005KT 07/05 A3028 RMK A01 T00740049  RH  084%=      5-min Rain = 0
KCL2 060548Z 33005KT 07/05 A3028 RMK A01 T00730049  RH  084%=      5-min Rain = 0
KCL2 060549Z 34005KT 07/05 A3028 RMK A01 T00720048  RH  085%=      5-min Rain = 0
KCL2 060550Z 33005KT 07/05 A3028 RMK A01 T00720048  RH  085%=      5-min Rain = 0
KCL2 060551Z 33005KT 07/05 A3028 RMK A01 T00710048  RH  085%=      5-min Rain = 0
KCL2 060552Z 34006KT 07/05 A3028 RMK A01 T00700048  RH  086%=      5-min Rain = 0
KCL2 060553Z 34006KT 07/05 A3028 RMK A01 T00700049  RH  086%=      5-min Rain = 0
KCL2 060554Z 34006KT 07/05 A3028 RMK A01 T00700049  RH  087%=      5-min Rain = 0
KCL2 060555Z 34005KT 07/05 A3028 RMK A01 T00700050  RH  087%=      5-min Rain = 0
KCL2 060556Z 34006KT 07/05 A3028 RMK A01 T00700049  RH  087%=      5-min Rain = 0
KCL2 060557Z 34006KT 07/05 A3028 RMK A01 T00690049  RH  087%=      5-min Rain = 0
KCL2 060558Z 34006KT 07/05 A3028 RMK A01 T00700049  RH  087%=      5-min Rain = 0
KCL2 060559Z 34005KT 07/05 A3028 RMK A01 T00690049  RH  087%=      5-min Rain = 0

Page generated in 0.0662 seconds.